<?xml version="1.0" encoding="UTF-8" standalone="no" ?>
<gpx xmlns="http://www.topografix.com/GPX/1/1" xmlns:xsi="http://www.w3.org/2001/XMLSchema-instance" xsi:schemaLocation="http://www.topografix.com/GPX/1/1 http://www.topografix.com/GPX/1/1/gpx.xsd" version="1.1" creator="VisuGPX - https://www.visugpx.com">
  <metadata>
    <name>Mazères - Baronies par Avezac</name>
  </metadata>
  <trk>
    <name><![CDATA[Mazères - Baronies par Avezac]]></name>
    <trkseg>
      <trkpt lat="43.07113" lon="0.54168">
        <ele>431.289673</ele>
        <time>2022-04-13T15:40:03.696Z</time>
      </trkpt>
      <trkpt lat="43.0713" lon="0.53894">
        <ele>431.503159</ele>
        <time>2022-04-13T15:40:48.821Z</time>
      </trkpt>
      <trkpt lat="43.0714" lon="0.53847">
        <ele>431.571605</ele>
        <time>2022-04-13T15:40:57.087Z</time>
      </trkpt>
      <trkpt lat="43.0719" lon="0.53716">
        <ele>432.00997</ele>
        <time>2022-04-13T15:41:22.826Z</time>
      </trkpt>
      <trkpt lat="43.07199" lon="0.53678">
        <ele>432.157364</ele>
        <time>2022-04-13T15:41:30.051Z</time>
      </trkpt>
      <trkpt lat="43.07207" lon="0.53592">
        <ele>432.475664</ele>
        <time>2022-04-13T15:41:45.594Z</time>
      </trkpt>
      <trkpt lat="43.07207" lon="0.53445">
        <ele>433.211874</ele>
        <time>2022-04-13T15:42:12.401Z</time>
      </trkpt>
      <trkpt lat="43.07201" lon="0.53316">
        <ele>433.901496</ele>
        <time>2022-04-13T15:42:36.208Z</time>
      </trkpt>
      <trkpt lat="43.0721" lon="0.53197">
        <ele>434.646013</ele>
        <time>2022-04-13T15:42:58.405Z</time>
      </trkpt>
      <trkpt lat="43.07209" lon="0.53138">
        <ele>435.008212</ele>
        <time>2022-04-13T15:43:09.361Z</time>
      </trkpt>
      <trkpt lat="43.07219" lon="0.53084">
        <ele>435.360178</ele>
        <time>2022-04-13T15:43:20.098Z</time>
      </trkpt>
      <trkpt lat="43.07257" lon="0.52937">
        <ele>436.704885</ele>
        <time>2022-04-13T15:43:50.918Z</time>
      </trkpt>
      <trkpt lat="43.07271" lon="0.52805">
        <ele>437.781147</ele>
        <time>2022-04-13T15:44:17.320Z</time>
      </trkpt>
      <trkpt lat="43.07292" lon="0.52687">
        <ele>438.630999</ele>
        <time>2022-04-13T15:44:40.523Z</time>
      </trkpt>
      <trkpt lat="43.07295" lon="0.52577">
        <ele>439.247888</ele>
        <time>2022-04-13T15:45:01.383Z</time>
      </trkpt>
      <trkpt lat="43.07318" lon="0.52486">
        <ele>439.4125</ele>
        <time>2022-04-13T15:45:17.815Z</time>
      </trkpt>
      <trkpt lat="43.07339" lon="0.52429">
        <ele>439.521064</ele>
        <time>2022-04-13T15:45:28.114Z</time>
      </trkpt>
      <trkpt lat="43.07329" lon="0.52405">
        <ele>439.56893</ele>
        <time>2022-04-13T15:45:32.373Z</time>
      </trkpt>
      <trkpt lat="43.07297" lon="0.52373">
        <ele>439.610389</ele>
        <time>2022-04-13T15:45:40.960Z</time>
      </trkpt>
      <trkpt lat="43.07273" lon="0.52355">
        <ele>439.596374</ele>
        <time>2022-04-13T15:45:46.916Z</time>
      </trkpt>
      <trkpt lat="43.07232" lon="0.52333">
        <ele>439.573424</ele>
        <time>2022-04-13T15:45:56.426Z</time>
      </trkpt>
      <trkpt lat="43.07163" lon="0.52287">
        <ele>439.533553</ele>
        <time>2022-04-13T15:46:13.279Z</time>
      </trkpt>
      <trkpt lat="43.07118" lon="0.5223">
        <ele>440.206091</ele>
        <time>2022-04-13T15:46:27.624Z</time>
      </trkpt>
      <trkpt lat="43.0708" lon="0.52164">
        <ele>441.066026</ele>
        <time>2022-04-13T15:46:44.154Z</time>
      </trkpt>
      <trkpt lat="43.07045" lon="0.52088">
        <ele>441.998235</ele>
        <time>2022-04-13T15:47:04.390Z</time>
      </trkpt>
      <trkpt lat="43.07024" lon="0.52061">
        <ele>442.755351</ele>
        <time>2022-04-13T15:47:14.308Z</time>
      </trkpt>
      <trkpt lat="43.06978" lon="0.52021">
        <ele>444.317897</ele>
        <time>2022-04-13T15:47:33.228Z</time>
      </trkpt>
      <trkpt lat="43.06873" lon="0.52003">
        <ele>447.379071</ele>
        <time>2022-04-13T15:48:09.040Z</time>
      </trkpt>
      <trkpt lat="43.06864" lon="0.51993">
        <ele>447.7476</ele>
        <time>2022-04-13T15:48:13.055Z</time>
      </trkpt>
      <trkpt lat="43.06832" lon="0.51973">
        <ele>448.792587</ele>
        <time>2022-04-13T15:48:24.836Z</time>
      </trkpt>
      <trkpt lat="43.06754" lon="0.51936">
        <ele>451.291873</ele>
        <time>2022-04-13T15:48:53.593Z</time>
      </trkpt>
      <trkpt lat="43.06732" lon="0.51915">
        <ele>452.093427</ele>
        <time>2022-04-13T15:49:02.800Z</time>
      </trkpt>
      <trkpt lat="43.0672" lon="0.51894">
        <ele>452.677023</ele>
        <time>2022-04-13T15:49:09.564Z</time>
      </trkpt>
      <trkpt lat="43.06724" lon="0.51788">
        <ele>454.518704</ele>
        <time>2022-04-13T15:49:35.961Z</time>
      </trkpt>
      <trkpt lat="43.06738" lon="0.51673">
        <ele>456.539136</ele>
        <time>2022-04-13T15:50:03.561Z</time>
      </trkpt>
      <trkpt lat="43.06759" lon="0.51448">
        <ele>457.596703</ele>
        <time>2022-04-13T15:50:43.407Z</time>
      </trkpt>
      <trkpt lat="43.0676" lon="0.5123">
        <ele>457.708567</ele>
        <time>2022-04-13T15:51:16.946Z</time>
      </trkpt>
      <trkpt lat="43.06754" lon="0.51193">
        <ele>457.703622</ele>
        <time>2022-04-13T15:51:23.536Z</time>
      </trkpt>
      <trkpt lat="43.06727" lon="0.51101">
        <ele>458.04671</ele>
        <time>2022-04-13T15:51:41.513Z</time>
      </trkpt>
      <trkpt lat="43.06719" lon="0.51056">
        <ele>458.287066</ele>
        <time>2022-04-13T15:51:49.960Z</time>
      </trkpt>
      <trkpt lat="43.06716" lon="0.50911">
        <ele>459.07561</ele>
        <time>2022-04-13T15:52:16.854Z</time>
      </trkpt>
      <trkpt lat="43.06708" lon="0.50817">
        <ele>459.843852</ele>
        <time>2022-04-13T15:52:34.991Z</time>
      </trkpt>
      <trkpt lat="43.06701" lon="0.50782">
        <ele>460.132574</ele>
        <time>2022-04-13T15:52:41.935Z</time>
      </trkpt>
      <trkpt lat="43.0667" lon="0.50714">
        <ele>460.78887</ele>
        <time>2022-04-13T15:52:58.002Z</time>
      </trkpt>
      <trkpt lat="43.06643" lon="0.50564">
        <ele>462.302827</ele>
        <time>2022-04-13T15:53:29.519Z</time>
      </trkpt>
      <trkpt lat="43.06639" lon="0.50388">
        <ele>463.587573</ele>
        <time>2022-04-13T15:54:05.767Z</time>
      </trkpt>
      <trkpt lat="43.06618" lon="0.50305">
        <ele>463.758353</ele>
        <time>2022-04-13T15:54:20.451Z</time>
      </trkpt>
      <trkpt lat="43.06623" lon="0.50239">
        <ele>463.888338</ele>
        <time>2022-04-13T15:54:30.715Z</time>
      </trkpt>
      <trkpt lat="43.06664" lon="0.50107">
        <ele>463.371914</ele>
        <time>2022-04-13T15:54:51.562Z</time>
      </trkpt>
      <trkpt lat="43.06707" lon="0.49971">
        <ele>462.678764</ele>
        <time>2022-04-13T15:55:12.773Z</time>
      </trkpt>
      <trkpt lat="43.06767" lon="0.49844">
        <ele>462.739972</ele>
        <time>2022-04-13T15:55:37.511Z</time>
      </trkpt>
      <trkpt lat="43.06779" lon="0.49787">
        <ele>462.764249</ele>
        <time>2022-04-13T15:55:47.885Z</time>
      </trkpt>
      <trkpt lat="43.06782" lon="0.49745">
        <ele>462.86743</ele>
        <time>2022-04-13T15:55:55.258Z</time>
      </trkpt>
      <trkpt lat="43.06746" lon="0.49505">
        <ele>463.992684</ele>
        <time>2022-04-13T15:56:39.838Z</time>
      </trkpt>
      <trkpt lat="43.06743" lon="0.49401">
        <ele>464.46869</ele>
        <time>2022-04-13T15:56:58.969Z</time>
      </trkpt>
      <trkpt lat="43.06753" lon="0.49265">
        <ele>465.110418</ele>
        <time>2022-04-13T15:57:23.314Z</time>
      </trkpt>
      <trkpt lat="43.06753" lon="0.4919">
        <ele>465.547187</ele>
        <time>2022-04-13T15:57:36.777Z</time>
      </trkpt>
      <trkpt lat="43.06745" lon="0.49086">
        <ele>466.152975</ele>
        <time>2022-04-13T15:57:55.635Z</time>
      </trkpt>
      <trkpt lat="43.06684" lon="0.48755">
        <ele>469.876655</ele>
        <time>2022-04-13T15:59:04.425Z</time>
      </trkpt>
      <trkpt lat="43.06674" lon="0.48749">
        <ele>470.206277</ele>
        <time>2022-04-13T15:59:08.603Z</time>
      </trkpt>
      <trkpt lat="43.06658" lon="0.48725">
        <ele>470.919729</ele>
        <time>2022-04-13T15:59:16.450Z</time>
      </trkpt>
      <trkpt lat="43.06575" lon="0.48662">
        <ele>473.722504</ele>
        <time>2022-04-13T15:59:51.762Z</time>
      </trkpt>
      <trkpt lat="43.06524" lon="0.48583">
        <ele>476.602174</ele>
        <time>2022-04-13T16:00:21.747Z</time>
      </trkpt>
      <trkpt lat="43.06495" lon="0.48528">
        <ele>478.560843</ele>
        <time>2022-04-13T16:00:40.886Z</time>
      </trkpt>
      <trkpt lat="43.06433" lon="0.48384">
        <ele>483.278213</ele>
        <time>2022-04-13T16:01:29.587Z</time>
      </trkpt>
      <trkpt lat="43.06434" lon="0.48371">
        <ele>483.646907</ele>
        <time>2022-04-13T16:01:33.217Z</time>
      </trkpt>
      <trkpt lat="43.06407" lon="0.48314">
        <ele>485.519386</ele>
        <time>2022-04-13T16:01:51.840Z</time>
      </trkpt>
      <trkpt lat="43.06388" lon="0.48263">
        <ele>487.079432</ele>
        <time>2022-04-13T16:02:06.851Z</time>
      </trkpt>
      <trkpt lat="43.06386" lon="0.4825">
        <ele>487.450424</ele>
        <time>2022-04-13T16:02:10.214Z</time>
      </trkpt>
      <trkpt lat="43.06371" lon="0.48251">
        <ele>488.033776</ele>
        <time>2022-04-13T16:02:15.847Z</time>
      </trkpt>
      <trkpt lat="43.06362" lon="0.48253">
        <ele>488.354764</ele>
        <time>2022-04-13T16:02:19.059Z</time>
      </trkpt>
      <trkpt lat="43.06344" lon="0.48245">
        <ele>488.98924</ele>
        <time>2022-04-13T16:02:25.322Z</time>
      </trkpt>
      <trkpt lat="43.06334" lon="0.48233">
        <ele>489.450333</ele>
        <time>2022-04-13T16:02:30.614Z</time>
      </trkpt>
      <trkpt lat="43.06279" lon="0.48126">
        <ele>492.68989</ele>
        <time>2022-04-13T16:03:03.991Z</time>
      </trkpt>
      <trkpt lat="43.06265" lon="0.48077">
        <ele>493.994988</ele>
        <time>2022-04-13T16:03:18.201Z</time>
      </trkpt>
      <trkpt lat="43.06263" lon="0.48048">
        <ele>494.714911</ele>
        <time>2022-04-13T16:03:26.585Z</time>
      </trkpt>
      <trkpt lat="43.06233" lon="0.47999">
        <ele>496.234997</ele>
        <time>2022-04-13T16:03:43.595Z</time>
      </trkpt>
      <trkpt lat="43.06194" lon="0.47949">
        <ele>497.946247</ele>
        <time>2022-04-13T16:04:03.216Z</time>
      </trkpt>
      <trkpt lat="43.06178" lon="0.47931">
        <ele>498.641965</ele>
        <time>2022-04-13T16:04:10.527Z</time>
      </trkpt>
      <trkpt lat="43.06123" lon="0.47881">
        <ele>500.378293</ele>
        <time>2022-04-13T16:04:31.885Z</time>
      </trkpt>
      <trkpt lat="43.06118" lon="0.47837">
        <ele>500.795766</ele>
        <time>2022-04-13T16:04:41.952Z</time>
      </trkpt>
      <trkpt lat="43.06058" lon="0.47766">
        <ele>501.798431</ele>
        <time>2022-04-13T16:05:02.254Z</time>
      </trkpt>
      <trkpt lat="43.06006" lon="0.47675">
        <ele>503.251102</ele>
        <time>2022-04-13T16:05:23.111Z</time>
      </trkpt>
      <trkpt lat="43.0597" lon="0.47624">
        <ele>504.42996</ele>
        <time>2022-04-13T16:05:36.589Z</time>
      </trkpt>
      <trkpt lat="43.05936" lon="0.47584">
        <ele>505.448053</ele>
        <time>2022-04-13T16:05:51.469Z</time>
      </trkpt>
      <trkpt lat="43.0589" lon="0.47544">
        <ele>506.895702</ele>
        <time>2022-04-13T16:06:12.157Z</time>
      </trkpt>
      <trkpt lat="43.05861" lon="0.47505">
        <ele>508.930406</ele>
        <time>2022-04-13T16:06:29.561Z</time>
      </trkpt>
      <trkpt lat="43.05843" lon="0.47403">
        <ele>512.781743</ele>
        <time>2022-04-13T16:07:03.404Z</time>
      </trkpt>
      <trkpt lat="43.05818" lon="0.47306">
        <ele>516.28056</ele>
        <time>2022-04-13T16:07:36.204Z</time>
      </trkpt>
      <trkpt lat="43.05752" lon="0.47181">
        <ele>520.504167</ele>
        <time>2022-04-13T16:08:19.015Z</time>
      </trkpt>
      <trkpt lat="43.0572" lon="0.47095">
        <ele>523.011764</ele>
        <time>2022-04-13T16:08:41.397Z</time>
      </trkpt>
      <trkpt lat="43.05711" lon="0.47061">
        <ele>523.803424</ele>
        <time>2022-04-13T16:08:49.543Z</time>
      </trkpt>
      <trkpt lat="43.05696" lon="0.46929">
        <ele>526.816384</ele>
        <time>2022-04-13T16:09:22.915Z</time>
      </trkpt>
      <trkpt lat="43.05667" lon="0.46829">
        <ele>529.847766</ele>
        <time>2022-04-13T16:09:52.968Z</time>
      </trkpt>
      <trkpt lat="43.05673" lon="0.46738">
        <ele>532.759344</ele>
        <time>2022-04-13T16:10:20.405Z</time>
      </trkpt>
      <trkpt lat="43.05672" lon="0.46652">
        <ele>535.551779</ele>
        <time>2022-04-13T16:10:46.671Z</time>
      </trkpt>
      <trkpt lat="43.05682" lon="0.46581">
        <ele>537.447912</ele>
        <time>2022-04-13T16:11:07.101Z</time>
      </trkpt>
      <trkpt lat="43.05692" lon="0.46542">
        <ele>538.515327</ele>
        <time>2022-04-13T16:11:18.244Z</time>
      </trkpt>
      <trkpt lat="43.05693" lon="0.46441">
        <ele>541.116541</ele>
        <time>2022-04-13T16:11:44.017Z</time>
      </trkpt>
      <trkpt lat="43.05707" lon="0.46302">
        <ele>544.395304</ele>
        <time>2022-04-13T16:12:18.311Z</time>
      </trkpt>
      <trkpt lat="43.05702" lon="0.46277">
        <ele>544.973611</ele>
        <time>2022-04-13T16:12:24.439Z</time>
      </trkpt>
      <trkpt lat="43.05684" lon="0.46224">
        <ele>546.275064</ele>
        <time>2022-04-13T16:12:37.920Z</time>
      </trkpt>
      <trkpt lat="43.05658" lon="0.46151">
        <ele>548.569258</ele>
        <time>2022-04-13T16:12:59.637Z</time>
      </trkpt>
      <trkpt lat="43.05648" lon="0.461">
        <ele>550.832926</ele>
        <time>2022-04-13T16:13:16.146Z</time>
      </trkpt>
      <trkpt lat="43.05642" lon="0.46056">
        <ele>552.783183</ele>
        <time>2022-04-13T16:13:32.199Z</time>
      </trkpt>
      <trkpt lat="43.05644" lon="0.46018">
        <ele>554.435508</ele>
        <time>2022-04-13T16:13:46.023Z</time>
      </trkpt>
      <trkpt lat="43.05629" lon="0.4593">
        <ele>558.33638</ele>
        <time>2022-04-13T16:14:18.310Z</time>
      </trkpt>
      <trkpt lat="43.05623" lon="0.45888">
        <ele>560.365151</ele>
        <time>2022-04-13T16:14:33.496Z</time>
      </trkpt>
      <trkpt lat="43.0562" lon="0.45844">
        <ele>562.468613</ele>
        <time>2022-04-13T16:14:49.642Z</time>
      </trkpt>
      <trkpt lat="43.0564" lon="0.45761">
        <ele>566.650393</ele>
        <time>2022-04-13T16:15:24.596Z</time>
      </trkpt>
      <trkpt lat="43.05639" lon="0.45749">
        <ele>567.195042</ele>
        <time>2022-04-13T16:15:28.670Z</time>
      </trkpt>
      <trkpt lat="43.05625" lon="0.45736">
        <ele>568.262593</ele>
        <time>2022-04-13T16:15:36.956Z</time>
      </trkpt>
      <trkpt lat="43.05572" lon="0.45749">
        <ele>570.595128</ele>
        <time>2022-04-13T16:15:57.872Z</time>
      </trkpt>
      <trkpt lat="43.05557" lon="0.45736">
        <ele>571.000252</ele>
        <time>2022-04-13T16:16:04.007Z</time>
      </trkpt>
      <trkpt lat="43.05541" lon="0.4572">
        <ele>571.449177</ele>
        <time>2022-04-13T16:16:08.476Z</time>
      </trkpt>
      <trkpt lat="43.05514" lon="0.45651">
        <ele>572.776619</ele>
        <time>2022-04-13T16:16:24.851Z</time>
      </trkpt>
      <trkpt lat="43.05455" lon="0.45535">
        <ele>576.136599</ele>
        <time>2022-04-13T16:16:54.396Z</time>
      </trkpt>
      <trkpt lat="43.05415" lon="0.45486">
        <ele>578.526655</ele>
        <time>2022-04-13T16:17:09.882Z</time>
      </trkpt>
      <trkpt lat="43.05405" lon="0.45465">
        <ele>579.327694</ele>
        <time>2022-04-13T16:17:17.420Z</time>
      </trkpt>
      <trkpt lat="43.05394" lon="0.45376">
        <ele>582.483816</ele>
        <time>2022-04-13T16:17:52.615Z</time>
      </trkpt>
      <trkpt lat="43.0538" lon="0.45304">
        <ele>587.491904</ele>
        <time>2022-04-13T16:18:27.818Z</time>
      </trkpt>
      <trkpt lat="43.05371" lon="0.45282">
        <ele>589.179196</ele>
        <time>2022-04-13T16:18:40.765Z</time>
      </trkpt>
      <trkpt lat="43.05341" lon="0.4524">
        <ele>593.183889</ele>
        <time>2022-04-13T16:19:08.563Z</time>
      </trkpt>
      <trkpt lat="43.05326" lon="0.45226">
        <ele>594.885081</ele>
        <time>2022-04-13T16:19:19.568Z</time>
      </trkpt>
      <trkpt lat="43.05318" lon="0.45215">
        <ele>595.911571</ele>
        <time>2022-04-13T16:19:26.379Z</time>
      </trkpt>
      <trkpt lat="43.05314" lon="0.452">
        <ele>597.041089</ele>
        <time>2022-04-13T16:19:33.290Z</time>
      </trkpt>
      <trkpt lat="43.05322" lon="0.45148">
        <ele>599.077484</ele>
        <time>2022-04-13T16:19:52.455Z</time>
      </trkpt>
      <trkpt lat="43.05339" lon="0.45107">
        <ele>599.695071</ele>
        <time>2022-04-13T16:20:08.483Z</time>
      </trkpt>
      <trkpt lat="43.05361" lon="0.45093">
        <ele>600.111747</ele>
        <time>2022-04-13T16:20:15.893Z</time>
      </trkpt>
      <trkpt lat="43.05406" lon="0.45083">
        <ele>600.915191</ele>
        <time>2022-04-13T16:20:28.064Z</time>
      </trkpt>
      <trkpt lat="43.05478" lon="0.45035">
        <ele>601.313722</ele>
        <time>2022-04-13T16:20:40.944Z</time>
      </trkpt>
      <trkpt lat="43.05557" lon="0.44956">
        <ele>599.106272</ele>
        <time>2022-04-13T16:20:56.969Z</time>
      </trkpt>
      <trkpt lat="43.05574" lon="0.4493">
        <ele>598.534638</ele>
        <time>2022-04-13T16:21:01.495Z</time>
      </trkpt>
      <trkpt lat="43.05591" lon="0.44884">
        <ele>597.89439</ele>
        <time>2022-04-13T16:21:09.135Z</time>
      </trkpt>
      <trkpt lat="43.05596" lon="0.44838">
        <ele>598.292387</ele>
        <time>2022-04-13T16:21:17.206Z</time>
      </trkpt>
      <trkpt lat="43.0556" lon="0.44783">
        <ele>598.937357</ele>
        <time>2022-04-13T16:21:31.447Z</time>
      </trkpt>
      <trkpt lat="43.05345" lon="0.44682">
        <ele>602.799244</ele>
        <time>2022-04-13T16:22:41.742Z</time>
      </trkpt>
      <trkpt lat="43.05327" lon="0.44681">
        <ele>603.173372</ele>
        <time>2022-04-13T16:22:47.669Z</time>
      </trkpt>
      <trkpt lat="43.05244" lon="0.447">
        <ele>603.057786</ele>
        <time>2022-04-13T16:23:10.632Z</time>
      </trkpt>
      <trkpt lat="43.05232" lon="0.44696">
        <ele>602.950247</ele>
        <time>2022-04-13T16:23:13.368Z</time>
      </trkpt>
      <trkpt lat="43.05226" lon="0.44687">
        <ele>602.881319</ele>
        <time>2022-04-13T16:23:15.080Z</time>
      </trkpt>
      <trkpt lat="43.05225" lon="0.44658">
        <ele>602.706275</ele>
        <time>2022-04-13T16:23:19.095Z</time>
      </trkpt>
      <trkpt lat="43.05246" lon="0.44582">
        <ele>602.219968</ele>
        <time>2022-04-13T16:23:29.244Z</time>
      </trkpt>
      <trkpt lat="43.05211" lon="0.44469">
        <ele>597.538613</ele>
        <time>2022-04-13T16:23:43.687Z</time>
      </trkpt>
      <trkpt lat="43.0518" lon="0.44408">
        <ele>594.255025</ele>
        <time>2022-04-13T16:23:51.424Z</time>
      </trkpt>
      <trkpt lat="43.05168" lon="0.44374">
        <ele>592.572165</ele>
        <time>2022-04-13T16:23:55.283Z</time>
      </trkpt>
      <trkpt lat="43.05166" lon="0.44339">
        <ele>590.927452</ele>
        <time>2022-04-13T16:23:58.856Z</time>
      </trkpt>
      <trkpt lat="43.052" lon="0.44314">
        <ele>587.601979</ele>
        <time>2022-04-13T16:24:04.178Z</time>
      </trkpt>
      <trkpt lat="43.05272" lon="0.44293">
        <ele>581.34787</ele>
        <time>2022-04-13T16:24:14.089Z</time>
      </trkpt>
      <trkpt lat="43.05381" lon="0.44226">
        <ele>574.449783</ele>
        <time>2022-04-13T16:24:31.377Z</time>
      </trkpt>
      <trkpt lat="43.05398" lon="0.44203">
        <ele>573.84528</ele>
        <time>2022-04-13T16:24:35.357Z</time>
      </trkpt>
      <trkpt lat="43.05406" lon="0.4415">
        <ele>572.847979</ele>
        <time>2022-04-13T16:24:42.876Z</time>
      </trkpt>
      <trkpt lat="43.05405" lon="0.44092">
        <ele>571.786949</ele>
        <time>2022-04-13T16:24:52.578Z</time>
      </trkpt>
      <trkpt lat="43.0539" lon="0.44018">
        <ele>569.980877</ele>
        <time>2022-04-13T16:25:08.743Z</time>
      </trkpt>
      <trkpt lat="43.05366" lon="0.43958">
        <ele>568.183789</ele>
        <time>2022-04-13T16:25:18.374Z</time>
      </trkpt>
      <trkpt lat="43.05343" lon="0.43917">
        <ele>566.840267</ele>
        <time>2022-04-13T16:25:23.994Z</time>
      </trkpt>
      <trkpt lat="43.05298" lon="0.43857">
        <ele>564.383206</ele>
        <time>2022-04-13T16:25:32.878Z</time>
      </trkpt>
      <trkpt lat="43.05261" lon="0.43831">
        <ele>561.581686</ele>
        <time>2022-04-13T16:25:38.640Z</time>
      </trkpt>
      <trkpt lat="43.05262" lon="0.43793">
        <ele>559.717021</ele>
        <time>2022-04-13T16:25:42.662Z</time>
      </trkpt>
      <trkpt lat="43.05223" lon="0.4374">
        <ele>556.089581</ele>
        <time>2022-04-13T16:25:50.860Z</time>
      </trkpt>
      <trkpt lat="43.05205" lon="0.43705">
        <ele>553.992028</ele>
        <time>2022-04-13T16:25:55.774Z</time>
      </trkpt>
      <trkpt lat="43.05199" lon="0.43676">
        <ele>553.014193</ele>
        <time>2022-04-13T16:25:59.144Z</time>
      </trkpt>
      <trkpt lat="43.05168" lon="0.43632">
        <ele>553.650421</ele>
        <time>2022-04-13T16:26:10.045Z</time>
      </trkpt>
      <trkpt lat="43.05087" lon="0.4364">
        <ele>554.799581</ele>
        <time>2022-04-13T16:26:40.275Z</time>
      </trkpt>
      <trkpt lat="43.05074" lon="0.4366">
        <ele>555.083316</ele>
        <time>2022-04-13T16:26:46.945Z</time>
      </trkpt>
      <trkpt lat="43.05051" lon="0.43663">
        <ele>555.408209</ele>
        <time>2022-04-13T16:26:56.420Z</time>
      </trkpt>
      <trkpt lat="43.05054" lon="0.43641">
        <ele>555.203378</ele>
        <time>2022-04-13T16:27:02.308Z</time>
      </trkpt>
      <trkpt lat="43.05051" lon="0.43618">
        <ele>554.788178</ele>
        <time>2022-04-13T16:27:07.643Z</time>
      </trkpt>
      <trkpt lat="43.05013" lon="0.43616">
        <ele>553.850789</ele>
        <time>2022-04-13T16:27:17.589Z</time>
      </trkpt>
      <trkpt lat="43.05" lon="0.43612">
        <ele>553.524216</ele>
        <time>2022-04-13T16:27:20.367Z</time>
      </trkpt>
      <trkpt lat="43.04957" lon="0.43559">
        <ele>552.101166</ele>
        <time>2022-04-13T16:27:37.584Z</time>
      </trkpt>
      <trkpt lat="43.04887" lon="0.43431">
        <ele>543.921003</ele>
        <time>2022-04-13T16:28:06.739Z</time>
      </trkpt>
      <trkpt lat="43.04846" lon="0.43315">
        <ele>534.947249</ele>
        <time>2022-04-13T16:28:29.357Z</time>
      </trkpt>
      <trkpt lat="43.04829" lon="0.43285">
        <ele>533.059921</ele>
        <time>2022-04-13T16:28:36.342Z</time>
      </trkpt>
      <trkpt lat="43.04765" lon="0.43211">
        <ele>529.092472</ele>
        <time>2022-04-13T16:28:57.870Z</time>
      </trkpt>
      <trkpt lat="43.04707" lon="0.43121">
        <ele>525.591216</ele>
        <time>2022-04-13T16:29:27.390Z</time>
      </trkpt>
      <trkpt lat="43.04677" lon="0.4305">
        <ele>527.509579</ele>
        <time>2022-04-13T16:29:54.747Z</time>
      </trkpt>
      <trkpt lat="43.04682" lon="0.42956">
        <ele>529.706764</ele>
        <time>2022-04-13T16:30:21.337Z</time>
      </trkpt>
      <trkpt lat="43.04678" lon="0.42934">
        <ele>530.24433</ele>
        <time>2022-04-13T16:30:28.581Z</time>
      </trkpt>
      <trkpt lat="43.04626" lon="0.42838">
        <ele>533.63882</ele>
        <time>2022-04-13T16:31:06.791Z</time>
      </trkpt>
      <trkpt lat="43.04604" lon="0.42821">
        <ele>534.678363</ele>
        <time>2022-04-13T16:31:17.415Z</time>
      </trkpt>
      <trkpt lat="43.04601" lon="0.42818">
        <ele>534.848715</ele>
        <time>2022-04-13T16:31:18.925Z</time>
      </trkpt>
      <trkpt lat="43.04559" lon="0.42737">
        <ele>537.872941</ele>
        <time>2022-04-13T16:31:44.901Z</time>
      </trkpt>
      <trkpt lat="43.04485" lon="0.42569">
        <ele>541.347417</ele>
        <time>2022-04-13T16:32:32.878Z</time>
      </trkpt>
      <trkpt lat="43.04481" lon="0.42555">
        <ele>541.602424</ele>
        <time>2022-04-13T16:32:36.620Z</time>
      </trkpt>
      <trkpt lat="43.04406" lon="0.42323">
        <ele>542.651807</ele>
        <time>2022-04-13T16:33:20.918Z</time>
      </trkpt>
      <trkpt lat="43.0434" lon="0.42121">
        <ele>541.803839</ele>
        <time>2022-04-13T16:33:51.104Z</time>
      </trkpt>
      <trkpt lat="43.04326" lon="0.42105">
        <ele>541.678572</ele>
        <time>2022-04-13T16:33:54.659Z</time>
      </trkpt>
      <trkpt lat="43.04292" lon="0.42112">
        <ele>541.433086</ele>
        <time>2022-04-13T16:34:02.422Z</time>
      </trkpt>
      <trkpt lat="43.04283" lon="0.42107">
        <ele>541.481227</ele>
        <time>2022-04-13T16:34:04.874Z</time>
      </trkpt>
      <trkpt lat="43.04196" lon="0.41954">
        <ele>542.956383</ele>
        <time>2022-04-13T16:34:44.496Z</time>
      </trkpt>
      <trkpt lat="43.04168" lon="0.41933">
        <ele>543.282942</ele>
        <time>2022-04-13T16:34:53.488Z</time>
      </trkpt>
      <trkpt lat="43.04131" lon="0.41915">
        <ele>542.727849</ele>
        <time>2022-04-13T16:35:03.761Z</time>
      </trkpt>
      <trkpt lat="43.03993" lon="0.41885">
        <ele>540.745637</ele>
        <time>2022-04-13T16:35:28.660Z</time>
      </trkpt>
      <trkpt lat="43.03906" lon="0.41874">
        <ele>537.301482</ele>
        <time>2022-04-13T16:35:41.878Z</time>
      </trkpt>
      <trkpt lat="43.03856" lon="0.41868">
        <ele>535.282832</ele>
        <time>2022-04-13T16:35:49.617Z</time>
      </trkpt>
      <trkpt lat="43.03809" lon="0.41843">
        <ele>533.541826</ele>
        <time>2022-04-13T16:35:57.374Z</time>
      </trkpt>
      <trkpt lat="43.03756" lon="0.41827">
        <ele>533.345077</ele>
        <time>2022-04-13T16:36:06.621Z</time>
      </trkpt>
      <trkpt lat="43.03707" lon="0.4182">
        <ele>533.166116</ele>
        <time>2022-04-13T16:36:16.619Z</time>
      </trkpt>
      <trkpt lat="43.0368" lon="0.41789">
        <ele>533.035847</ele>
        <time>2022-04-13T16:36:26.754Z</time>
      </trkpt>
      <trkpt lat="43.03698" lon="0.41758">
        <ele>532.93069</ele>
        <time>2022-04-13T16:36:36.211Z</time>
      </trkpt>
      <trkpt lat="43.03726" lon="0.4174">
        <ele>534.129537</ele>
        <time>2022-04-13T16:36:46.699Z</time>
      </trkpt>
      <trkpt lat="43.03729" lon="0.41716">
        <ele>534.93466</ele>
        <time>2022-04-13T16:36:53.006Z</time>
      </trkpt>
      <trkpt lat="43.03715" lon="0.41687">
        <ele>536.120469</ele>
        <time>2022-04-13T16:37:02.844Z</time>
      </trkpt>
      <trkpt lat="43.03693" lon="0.41629">
        <ele>538.293967</ele>
        <time>2022-04-13T16:37:22.769Z</time>
      </trkpt>
      <trkpt lat="43.0368" lon="0.41571">
        <ele>540.314802</ele>
        <time>2022-04-13T16:37:42.889Z</time>
      </trkpt>
      <trkpt lat="43.03677" lon="0.41529">
        <ele>541.987947</ele>
        <time>2022-04-13T16:37:57.494Z</time>
      </trkpt>
      <trkpt lat="43.0368" lon="0.41432">
        <ele>546.606539</ele>
        <time>2022-04-13T16:38:31.411Z</time>
      </trkpt>
      <trkpt lat="43.03683" lon="0.41353">
        <ele>550.352007</ele>
        <time>2022-04-13T16:38:59.155Z</time>
      </trkpt>
      <trkpt lat="43.03679" lon="0.4125">
        <ele>554.874246</ele>
        <time>2022-04-13T16:39:37.894Z</time>
      </trkpt>
      <trkpt lat="43.03675" lon="0.41166">
        <ele>558.220469</ele>
        <time>2022-04-13T16:40:06.176Z</time>
      </trkpt>
      <trkpt lat="43.03689" lon="0.41115">
        <ele>560.375475</ele>
        <time>2022-04-13T16:40:22.549Z</time>
      </trkpt>
      <trkpt lat="43.03735" lon="0.41081">
        <ele>562.878671</ele>
        <time>2022-04-13T16:40:43.043Z</time>
      </trkpt>
      <trkpt lat="43.03783" lon="0.41047">
        <ele>564.04604</ele>
        <time>2022-04-13T16:41:02.136Z</time>
      </trkpt>
      <trkpt lat="43.03795" lon="0.41031">
        <ele>564.411687</ele>
        <time>2022-04-13T16:41:07.683Z</time>
      </trkpt>
      <trkpt lat="43.03821" lon="0.4088">
        <ele>566.653267</ele>
        <time>2022-04-13T16:41:37.738Z</time>
      </trkpt>
      <trkpt lat="43.03836" lon="0.40745">
        <ele>567.320942</ele>
        <time>2022-04-13T16:42:02.195Z</time>
      </trkpt>
      <trkpt lat="43.0384" lon="0.40623">
        <ele>567.8748</ele>
        <time>2022-04-13T16:42:24.295Z</time>
      </trkpt>
      <trkpt lat="43.0384" lon="0.40604">
        <ele>567.942401</ele>
        <time>2022-04-13T16:42:27.873Z</time>
      </trkpt>
      <trkpt lat="43.03839" lon="0.40584">
        <ele>568.014514</ele>
        <time>2022-04-13T16:42:31.719Z</time>
      </trkpt>
      <trkpt lat="43.03795" lon="0.40235">
        <ele>568.810284</ele>
        <time>2022-04-13T16:43:33.100Z</time>
      </trkpt>
      <trkpt lat="43.03759" lon="0.40239">
        <ele>568.855983</ele>
        <time>2022-04-13T16:43:40.635Z</time>
      </trkpt>
      <trkpt lat="43.03702" lon="0.40257">
        <ele>569.614368</ele>
        <time>2022-04-13T16:43:53.625Z</time>
      </trkpt>
      <trkpt lat="43.03665" lon="0.40255">
        <ele>570.194846</ele>
        <time>2022-04-13T16:44:02.069Z</time>
      </trkpt>
      <trkpt lat="43.03585" lon="0.40214">
        <ele>571.543251</ele>
        <time>2022-04-13T16:44:30.471Z</time>
      </trkpt>
      <trkpt lat="43.03502" lon="0.40189">
        <ele>576.193906</ele>
        <time>2022-04-13T16:45:06.060Z</time>
      </trkpt>
      <trkpt lat="43.03495" lon="0.40182">
        <ele>576.709455</ele>
        <time>2022-04-13T16:45:11.401Z</time>
      </trkpt>
      <trkpt lat="43.03474" lon="0.40125">
        <ele>579.485743</ele>
        <time>2022-04-13T16:45:31.949Z</time>
      </trkpt>
      <trkpt lat="43.0346" lon="0.401">
        <ele>580.878923</ele>
        <time>2022-04-13T16:45:43.926Z</time>
      </trkpt>
      <trkpt lat="43.03455" lon="0.40093">
        <ele>581.321003</ele>
        <time>2022-04-13T16:45:47.996Z</time>
      </trkpt>
      <trkpt lat="43.03444" lon="0.4008">
        <ele>582.175412</ele>
        <time>2022-04-13T16:45:54.764Z</time>
      </trkpt>
      <trkpt lat="43.03427" lon="0.40058">
        <ele>584.467581</ele>
        <time>2022-04-13T16:46:09.013Z</time>
      </trkpt>
      <trkpt lat="43.0342" lon="0.40044">
        <ele>585.77657</ele>
        <time>2022-04-13T16:46:15.333Z</time>
      </trkpt>
      <trkpt lat="43.03404" lon="0.4">
        <ele>589.72086</ele>
        <time>2022-04-13T16:46:38.688Z</time>
      </trkpt>
      <trkpt lat="43.03399" lon="0.39991">
        <ele>590.630891</ele>
        <time>2022-04-13T16:46:44.028Z</time>
      </trkpt>
      <trkpt lat="43.03357" lon="0.39869">
        <ele>601.390182</ele>
        <time>2022-04-13T16:47:53.051Z</time>
      </trkpt>
      <trkpt lat="43.03306" lon="0.3976">
        <ele>612.41982</ele>
        <time>2022-04-13T16:49:07.762Z</time>
      </trkpt>
      <trkpt lat="43.03269" lon="0.39648">
        <ele>622.951492</ele>
        <time>2022-04-13T16:50:10.143Z</time>
      </trkpt>
      <trkpt lat="43.03255" lon="0.39562">
        <ele>624.496558</ele>
        <time>2022-04-13T16:50:40.145Z</time>
      </trkpt>
      <trkpt lat="43.0325" lon="0.39535">
        <ele>624.929011</ele>
        <time>2022-04-13T16:50:47.419Z</time>
      </trkpt>
      <trkpt lat="43.03197" lon="0.39295">
        <ele>624.597299</ele>
        <time>2022-04-13T16:51:19.762Z</time>
      </trkpt>
      <trkpt lat="43.03182" lon="0.39232">
        <ele>623.255557</ele>
        <time>2022-04-13T16:51:27.305Z</time>
      </trkpt>
      <trkpt lat="43.03174" lon="0.39147">
        <ele>621.279232</ele>
        <time>2022-04-13T16:51:37.622Z</time>
      </trkpt>
      <trkpt lat="43.03167" lon="0.39118">
        <ele>620.335342</ele>
        <time>2022-04-13T16:51:41.447Z</time>
      </trkpt>
      <trkpt lat="43.03108" lon="0.39005">
        <ele>616.135321</ele>
        <time>2022-04-13T16:51:57.819Z</time>
      </trkpt>
      <trkpt lat="43.03081" lon="0.38897">
        <ele>611.436885</ele>
        <time>2022-04-13T16:52:09.895Z</time>
      </trkpt>
      <trkpt lat="43.03121" lon="0.38785">
        <ele>605.184957</ele>
        <time>2022-04-13T16:52:22.813Z</time>
      </trkpt>
      <trkpt lat="43.03137" lon="0.38722">
        <ele>601.907217</ele>
        <time>2022-04-13T16:52:29.831Z</time>
      </trkpt>
      <trkpt lat="43.0318" lon="0.38671">
        <ele>598.922965</ele>
        <time>2022-04-13T16:52:38.000Z</time>
      </trkpt>
      <trkpt lat="43.03178" lon="0.38654">
        <ele>598.281249</ele>
        <time>2022-04-13T16:52:39.823Z</time>
      </trkpt>
      <trkpt lat="43.03147" lon="0.38585">
        <ele>595.158504</ele>
        <time>2022-04-13T16:52:49.150Z</time>
      </trkpt>
      <trkpt lat="43.03141" lon="0.38532">
        <ele>593.085595</ele>
        <time>2022-04-13T16:52:55.306Z</time>
      </trkpt>
      <trkpt lat="43.03182" lon="0.38386">
        <ele>587.988456</ele>
        <time>2022-04-13T16:53:12.855Z</time>
      </trkpt>
      <trkpt lat="43.0319" lon="0.38328">
        <ele>586.085128</ele>
        <time>2022-04-13T16:53:19.474Z</time>
      </trkpt>
      <trkpt lat="43.03212" lon="0.38285">
        <ele>584.529698</ele>
        <time>2022-04-13T16:53:25.436Z</time>
      </trkpt>
      <trkpt lat="43.03228" lon="0.38265">
        <ele>583.91427</ele>
        <time>2022-04-13T16:53:28.705Z</time>
      </trkpt>
      <trkpt lat="43.03256" lon="0.38233">
        <ele>582.821324</ele>
        <time>2022-04-13T16:53:34.545Z</time>
      </trkpt>
      <trkpt lat="43.03278" lon="0.38218">
        <ele>582.104429</ele>
        <time>2022-04-13T16:53:38.436Z</time>
      </trkpt>
      <trkpt lat="43.03299" lon="0.3819">
        <ele>581.249456</ele>
        <time>2022-04-13T16:53:43.256Z</time>
      </trkpt>
      <trkpt lat="43.03319" lon="0.38157">
        <ele>580.316594</ele>
        <time>2022-04-13T16:53:48.970Z</time>
      </trkpt>
      <trkpt lat="43.03353" lon="0.38106">
        <ele>579.582333</ele>
        <time>2022-04-13T16:53:58.143Z</time>
      </trkpt>
      <trkpt lat="43.03364" lon="0.38092">
        <ele>579.632713</ele>
        <time>2022-04-13T16:54:01.219Z</time>
      </trkpt>
      <trkpt lat="43.03386" lon="0.38067">
        <ele>579.721413</ele>
        <time>2022-04-13T16:54:06.820Z</time>
      </trkpt>
      <trkpt lat="43.03406" lon="0.38055">
        <ele>579.793346</ele>
        <time>2022-04-13T16:54:11.506Z</time>
      </trkpt>
      <trkpt lat="43.03443" lon="0.38047">
        <ele>579.912863</ele>
        <time>2022-04-13T16:54:20.042Z</time>
      </trkpt>
      <trkpt lat="43.03454" lon="0.38045">
        <ele>579.947166</ele>
        <time>2022-04-13T16:54:22.704Z</time>
      </trkpt>
      <trkpt lat="43.03486" lon="0.38045">
        <ele>580.049765</ele>
        <time>2022-04-13T16:54:31.640Z</time>
      </trkpt>
      <trkpt lat="43.03502" lon="0.38058">
        <ele>580.466043</ele>
        <time>2022-04-13T16:54:37.920Z</time>
      </trkpt>
      <trkpt lat="43.03512" lon="0.38069">
        <ele>581.162187</ele>
        <time>2022-04-13T16:54:42.639Z</time>
      </trkpt>
      <trkpt lat="43.03524" lon="0.38077">
        <ele>581.876901</ele>
        <time>2022-04-13T16:54:47.844Z</time>
      </trkpt>
      <trkpt lat="43.03556" lon="0.38079">
        <ele>583.554089</ele>
        <time>2022-04-13T16:55:00.758Z</time>
      </trkpt>
      <trkpt lat="43.03625" lon="0.38095">
        <ele>587.217402</ele>
        <time>2022-04-13T16:55:34.286Z</time>
      </trkpt>
      <trkpt lat="43.03646" lon="0.38112">
        <ele>588.474471</ele>
        <time>2022-04-13T16:55:47.044Z</time>
      </trkpt>
      <trkpt lat="43.03668" lon="0.38105">
        <ele>589.574725</ele>
        <time>2022-04-13T16:55:58.984Z</time>
      </trkpt>
      <trkpt lat="43.03709" lon="0.3809">
        <ele>590.540686</ele>
        <time>2022-04-13T16:56:18.053Z</time>
      </trkpt>
      <trkpt lat="43.03752" lon="0.38078">
        <ele>591.527009</ele>
        <time>2022-04-13T16:56:33.428Z</time>
      </trkpt>
      <trkpt lat="43.0383" lon="0.3808">
        <ele>593.314406</ele>
        <time>2022-04-13T16:56:53.664Z</time>
      </trkpt>
      <trkpt lat="43.0386" lon="0.38074">
        <ele>593.139726</ele>
        <time>2022-04-13T16:56:58.651Z</time>
      </trkpt>
      <trkpt lat="43.03882" lon="0.38057">
        <ele>592.465611</ele>
        <time>2022-04-13T16:57:02.524Z</time>
      </trkpt>
      <trkpt lat="43.03961" lon="0.37954">
        <ele>589.542248</ele>
        <time>2022-04-13T16:57:19.813Z</time>
      </trkpt>
      <trkpt lat="43.04" lon="0.37925">
        <ele>588.327518</ele>
        <time>2022-04-13T16:57:28.227Z</time>
      </trkpt>
      <trkpt lat="43.04042" lon="0.37926">
        <ele>587.115389</ele>
        <time>2022-04-13T16:57:39.193Z</time>
      </trkpt>
      <trkpt lat="43.04083" lon="0.37953">
        <ele>585.822188</ele>
        <time>2022-04-13T16:57:51.293Z</time>
      </trkpt>
      <trkpt lat="43.04185" lon="0.37996">
        <ele>580.55686</ele>
        <time>2022-04-13T16:58:06.825Z</time>
      </trkpt>
      <trkpt lat="43.04216" lon="0.38003">
        <ele>577.388098</ele>
        <time>2022-04-13T16:58:11.138Z</time>
      </trkpt>
      <trkpt lat="43.04243" lon="0.37995">
        <ele>574.681182</ele>
        <time>2022-04-13T16:58:14.729Z</time>
      </trkpt>
      <trkpt lat="43.04243" lon="0.3799">
        <ele>574.350966</ele>
        <time>2022-04-13T16:58:15.171Z</time>
      </trkpt>
      <trkpt lat="43.04246" lon="0.37961">
        <ele>572.206169</ele>
        <time>2022-04-13T16:58:17.965Z</time>
      </trkpt>
      <trkpt lat="43.04247" lon="0.37954">
        <ele>571.659508</ele>
        <time>2022-04-13T16:58:18.715Z</time>
      </trkpt>
      <trkpt lat="43.0425" lon="0.37947">
        <ele>571.072623</ele>
        <time>2022-04-13T16:58:19.540Z</time>
      </trkpt>
      <trkpt lat="43.04255" lon="0.37869">
        <ele>565.618464</ele>
        <time>2022-04-13T16:58:27.560Z</time>
      </trkpt>
      <trkpt lat="43.04254" lon="0.37851">
        <ele>565.475856</ele>
        <time>2022-04-13T16:58:29.427Z</time>
      </trkpt>
      <trkpt lat="43.04247" lon="0.37752">
        <ele>564.667565</ele>
        <time>2022-04-13T16:58:40.176Z</time>
      </trkpt>
      <trkpt lat="43.04241" lon="0.37691">
        <ele>564.163962</ele>
        <time>2022-04-13T16:58:57.004Z</time>
      </trkpt>
      <trkpt lat="43.04234" lon="0.37661">
        <ele>563.905224</ele>
        <time>2022-04-13T16:59:09.075Z</time>
      </trkpt>
      <trkpt lat="43.0419" lon="0.3763">
        <ele>566.504683</ele>
        <time>2022-04-13T16:59:36.894Z</time>
      </trkpt>
      <trkpt lat="43.04182" lon="0.37605">
        <ele>568.77159</ele>
        <time>2022-04-13T16:59:50.697Z</time>
      </trkpt>
      <trkpt lat="43.04197" lon="0.3754">
        <ele>574.176964</ele>
        <time>2022-04-13T17:00:21.327Z</time>
      </trkpt>
      <trkpt lat="43.04202" lon="0.37475">
        <ele>579.386123</ele>
        <time>2022-04-13T17:00:57.762Z</time>
      </trkpt>
      <trkpt lat="43.04206" lon="0.37434">
        <ele>582.709422</ele>
        <time>2022-04-13T17:01:21.375Z</time>
      </trkpt>
      <trkpt lat="43.04204" lon="0.37421">
        <ele>583.762912</ele>
        <time>2022-04-13T17:01:30.367Z</time>
      </trkpt>
      <trkpt lat="43.04179" lon="0.37365">
        <ele>588.712745</ele>
        <time>2022-04-13T17:02:04.701Z</time>
      </trkpt>
      <trkpt lat="43.04161" lon="0.37291">
        <ele>594.581913</ele>
        <time>2022-04-13T17:02:42.353Z</time>
      </trkpt>
      <trkpt lat="43.04152" lon="0.37289">
        <ele>595.543366</ele>
        <time>2022-04-13T17:02:47.840Z</time>
      </trkpt>
      <trkpt lat="43.04095" lon="0.37241">
        <ele>602.04158</ele>
        <time>2022-04-13T17:03:26.333Z</time>
      </trkpt>
      <trkpt lat="43.04038" lon="0.37199">
        <ele>604.43135</ele>
        <time>2022-04-13T17:03:57.763Z</time>
      </trkpt>
      <trkpt lat="43.03908" lon="0.37084">
        <ele>609.297724</ele>
        <time>2022-04-13T17:04:42.789Z</time>
      </trkpt>
      <trkpt lat="43.03884" lon="0.3706">
        <ele>609.789297</ele>
        <time>2022-04-13T17:04:50.305Z</time>
      </trkpt>
      <trkpt lat="43.0387" lon="0.37033">
        <ele>610.207874</ele>
        <time>2022-04-13T17:04:57.029Z</time>
      </trkpt>
      <trkpt lat="43.03839" lon="0.37003">
        <ele>610.855962</ele>
        <time>2022-04-13T17:05:08.421Z</time>
      </trkpt>
      <trkpt lat="43.0384" lon="0.36965">
        <ele>611.336282</ele>
        <time>2022-04-13T17:05:17.468Z</time>
      </trkpt>
      <trkpt lat="43.03798" lon="0.36959">
        <ele>612.581498</ele>
        <time>2022-04-13T17:05:31.243Z</time>
      </trkpt>
      <trkpt lat="43.03673" lon="0.36935">
        <ele>617.150973</ele>
        <time>2022-04-13T17:06:18.718Z</time>
      </trkpt>
      <trkpt lat="43.03618" lon="0.36925">
        <ele>618.985024</ele>
        <time>2022-04-13T17:06:41.321Z</time>
      </trkpt>
      <trkpt lat="43.0355" lon="0.36913">
        <ele>621.017496</ele>
        <time>2022-04-13T17:07:06.174Z</time>
      </trkpt>
      <trkpt lat="43.03537" lon="0.36911">
        <ele>621.423658</ele>
        <time>2022-04-13T17:07:10.692Z</time>
      </trkpt>
      <trkpt lat="43.03412" lon="0.36888">
        <ele>624.257056</ele>
        <time>2022-04-13T17:07:47.766Z</time>
      </trkpt>
      <trkpt lat="43.03345" lon="0.36872">
        <ele>625.191107</ele>
        <time>2022-04-13T17:08:05.785Z</time>
      </trkpt>
      <trkpt lat="43.03259" lon="0.3682">
        <ele>626.408503</ele>
        <time>2022-04-13T17:08:31.023Z</time>
      </trkpt>
      <trkpt lat="43.03219" lon="0.3681">
        <ele>626.895123</ele>
        <time>2022-04-13T17:08:42.105Z</time>
      </trkpt>
      <trkpt lat="43.03172" lon="0.3682">
        <ele>627.466746</ele>
        <time>2022-04-13T17:08:55.409Z</time>
      </trkpt>
      <trkpt lat="43.031" lon="0.36872">
        <ele>628.266159</ele>
        <time>2022-04-13T17:09:17.370Z</time>
      </trkpt>
      <trkpt lat="43.03028" lon="0.36887">
        <ele>628.725472</ele>
        <time>2022-04-13T17:09:35.704Z</time>
      </trkpt>
      <trkpt lat="43.02997" lon="0.36893">
        <ele>628.923901</ele>
        <time>2022-04-13T17:09:43.535Z</time>
      </trkpt>
      <trkpt lat="43.02847" lon="0.36921">
        <ele>628.797275</ele>
        <time>2022-04-13T17:10:17.122Z</time>
      </trkpt>
      <trkpt lat="43.02787" lon="0.36961">
        <ele>628.532362</ele>
        <time>2022-04-13T17:10:29.453Z</time>
      </trkpt>
      <trkpt lat="43.02758" lon="0.36953">
        <ele>629.053621</ele>
        <time>2022-04-13T17:10:34.862Z</time>
      </trkpt>
      <trkpt lat="43.0276" lon="0.36943">
        <ele>629.246588</ele>
        <time>2022-04-13T17:10:36.694Z</time>
      </trkpt>
      <trkpt lat="43.0276" lon="0.36933">
        <ele>629.440191</ele>
        <time>2022-04-13T17:10:38.598Z</time>
      </trkpt>
      <trkpt lat="43.02751" lon="0.36914">
        <ele>629.869977</ele>
        <time>2022-04-13T17:10:42.830Z</time>
      </trkpt>
      <trkpt lat="43.02737" lon="0.36907">
        <ele>630.265819</ele>
        <time>2022-04-13T17:10:47.659Z</time>
      </trkpt>
      <trkpt lat="43.02722" lon="0.36913">
        <ele>630.664149</ele>
        <time>2022-04-13T17:10:52.203Z</time>
      </trkpt>
      <trkpt lat="43.02683" lon="0.36841">
        <ele>632.366794</ele>
        <time>2022-04-13T17:11:14.847Z</time>
      </trkpt>
      <trkpt lat="43.02675" lon="0.36818">
        <ele>632.849375</ele>
        <time>2022-04-13T17:11:21.692Z</time>
      </trkpt>
      <trkpt lat="43.02674" lon="0.36751">
        <ele>636.743665</ele>
        <time>2022-04-13T17:11:46.142Z</time>
      </trkpt>
      <trkpt lat="43.02688" lon="0.3663">
        <ele>645.330975</ele>
        <time>2022-04-13T17:12:44.758Z</time>
      </trkpt>
      <trkpt lat="43.02693" lon="0.3659">
        <ele>648.191621</ele>
        <time>2022-04-13T17:13:09.380Z</time>
      </trkpt>
      <trkpt lat="43.02692" lon="0.36546">
        <ele>651.035149</ele>
        <time>2022-04-13T17:13:29.540Z</time>
      </trkpt>
      <trkpt lat="43.02672" lon="0.3638">
        <ele>658.702493</ele>
        <time>2022-04-13T17:14:35.321Z</time>
      </trkpt>
      <trkpt lat="43.02687" lon="0.36389">
        <ele>659.74258</ele>
        <time>2022-04-13T17:14:38.728Z</time>
      </trkpt>
      <trkpt lat="43.02719" lon="0.36424">
        <ele>661.402778</ele>
        <time>2022-04-13T17:14:52.371Z</time>
      </trkpt>
      <trkpt lat="43.02733" lon="0.36428">
        <ele>660.90263</ele>
        <time>2022-04-13T17:14:57.926Z</time>
      </trkpt>
      <trkpt lat="43.02773" lon="0.36383">
        <ele>659.008454</ele>
        <time>2022-04-13T17:15:06.027Z</time>
      </trkpt>
      <trkpt lat="43.02775" lon="0.3638">
        <ele>658.864238</ele>
        <time>2022-04-13T17:15:06.639Z</time>
      </trkpt>
      <trkpt lat="43.02822" lon="0.36327">
        <ele>656.633931</ele>
        <time>2022-04-13T17:15:15.581Z</time>
      </trkpt>
      <trkpt lat="43.02893" lon="0.36272">
        <ele>652.047454</ele>
        <time>2022-04-13T17:15:27.474Z</time>
      </trkpt>
      <trkpt lat="43.02961" lon="0.36264">
        <ele>646.835355</ele>
        <time>2022-04-13T17:15:37.147Z</time>
      </trkpt>
      <trkpt lat="43.02972" lon="0.36255">
        <ele>645.848677</ele>
        <time>2022-04-13T17:15:38.907Z</time>
      </trkpt>
      <trkpt lat="43.03006" lon="0.36132">
        <ele>637.475238</ele>
        <time>2022-04-13T17:15:52.166Z</time>
      </trkpt>
      <trkpt lat="43.03032" lon="0.36087">
        <ele>633.148699</ele>
        <time>2022-04-13T17:15:57.837Z</time>
      </trkpt>
      <trkpt lat="43.03122" lon="0.36033">
        <ele>622.882537</ele>
        <time>2022-04-13T17:16:11.201Z</time>
      </trkpt>
      <trkpt lat="43.03149" lon="0.36001">
        <ele>618.939975</ele>
        <time>2022-04-13T17:16:15.850Z</time>
      </trkpt>
      <trkpt lat="43.03163" lon="0.35961">
        <ele>615.294904</ele>
        <time>2022-04-13T17:16:20.152Z</time>
      </trkpt>
      <trkpt lat="43.03183" lon="0.35924">
        <ele>611.492272</ele>
        <time>2022-04-13T17:16:24.665Z</time>
      </trkpt>
      <trkpt lat="43.03243" lon="0.35852">
        <ele>602.580066</ele>
        <time>2022-04-13T17:16:35.310Z</time>
      </trkpt>
      <trkpt lat="43.03279" lon="0.35764">
        <ele>594.404326</ele>
        <time>2022-04-13T17:16:45.435Z</time>
      </trkpt>
      <trkpt lat="43.03301" lon="0.35743">
        <ele>591.397423</ele>
        <time>2022-04-13T17:16:49.034Z</time>
      </trkpt>
      <trkpt lat="43.03349" lon="0.35715">
        <ele>585.64895</ele>
        <time>2022-04-13T17:16:55.917Z</time>
      </trkpt>
      <trkpt lat="43.03378" lon="0.35676">
        <ele>581.146656</ele>
        <time>2022-04-13T17:17:01.371Z</time>
      </trkpt>
      <trkpt lat="43.03399" lon="0.35657">
        <ele>578.404212</ele>
        <time>2022-04-13T17:17:04.759Z</time>
      </trkpt>
      <trkpt lat="43.03411" lon="0.35626">
        <ele>575.539035</ele>
        <time>2022-04-13T17:17:08.279Z</time>
      </trkpt>
      <trkpt lat="43.03427" lon="0.35568">
        <ele>570.610313</ele>
        <time>2022-04-13T17:17:14.446Z</time>
      </trkpt>
      <trkpt lat="43.03445" lon="0.3553">
        <ele>566.975718</ele>
        <time>2022-04-13T17:17:18.892Z</time>
      </trkpt>
      <trkpt lat="43.03486" lon="0.35508">
        <ele>562.383729</ele>
        <time>2022-04-13T17:17:24.724Z</time>
      </trkpt>
      <trkpt lat="43.03524" lon="0.35469">
        <ele>558.866087</ele>
        <time>2022-04-13T17:17:31.046Z</time>
      </trkpt>
      <trkpt lat="43.03556" lon="0.35466">
        <ele>556.517505</ele>
        <time>2022-04-13T17:17:35.513Z</time>
      </trkpt>
      <trkpt lat="43.03568" lon="0.35418">
        <ele>553.736749</ele>
        <time>2022-04-13T17:17:41.322Z</time>
      </trkpt>
      <trkpt lat="43.03585" lon="0.35372">
        <ele>550.941607</ele>
        <time>2022-04-13T17:17:47.241Z</time>
      </trkpt>
      <trkpt lat="43.03588" lon="0.35361">
        <ele>550.261691</ele>
        <time>2022-04-13T17:17:48.702Z</time>
      </trkpt>
      <trkpt lat="43.03587" lon="0.35339">
        <ele>549.45551</ele>
        <time>2022-04-13T17:17:51.228Z</time>
      </trkpt>
      <trkpt lat="43.03579" lon="0.35284">
        <ele>549.395828</ele>
        <time>2022-04-13T17:17:57.907Z</time>
      </trkpt>
      <trkpt lat="43.03568" lon="0.35214">
        <ele>549.319258</ele>
        <time>2022-04-13T17:18:07.850Z</time>
      </trkpt>
      <trkpt lat="43.0356" lon="0.3511">
        <ele>549.208124</ele>
        <time>2022-04-13T17:18:34.050Z</time>
      </trkpt>
      <trkpt lat="43.03606" lon="0.35065">
        <ele>552.412426</ele>
        <time>2022-04-13T17:18:58.424Z</time>
      </trkpt>
      <trkpt lat="43.03667" lon="0.35045">
        <ele>556.325119</ele>
        <time>2022-04-13T17:19:27.723Z</time>
      </trkpt>
      <trkpt lat="43.03707" lon="0.35003">
        <ele>559.481733</ele>
        <time>2022-04-13T17:19:55.988Z</time>
      </trkpt>
      <trkpt lat="43.03784" lon="0.34946">
        <ele>567.064803</ele>
        <time>2022-04-13T17:20:45.398Z</time>
      </trkpt>
      <trkpt lat="43.03819" lon="0.34908">
        <ele>571.171336</ele>
        <time>2022-04-13T17:21:12.450Z</time>
      </trkpt>
      <trkpt lat="43.03906" lon="0.34848">
        <ele>580.782352</ele>
        <time>2022-04-13T17:22:14.240Z</time>
      </trkpt>
      <trkpt lat="43.04" lon="0.34717">
        <ele>595.580953</ele>
        <time>2022-04-13T17:23:47.612Z</time>
      </trkpt>
      <trkpt lat="43.04076" lon="0.34628">
        <ele>605.024192</ele>
        <time>2022-04-13T17:24:53.385Z</time>
      </trkpt>
      <trkpt lat="43.04091" lon="0.34503">
        <ele>613.475426</ele>
        <time>2022-04-13T17:25:44.750Z</time>
      </trkpt>
      <trkpt lat="43.04098" lon="0.34478">
        <ele>614.726626</ele>
        <time>2022-04-13T17:25:54.816Z</time>
      </trkpt>
      <trkpt lat="43.04137" lon="0.34418">
        <ele>618.377</ele>
        <time>2022-04-13T17:26:21.797Z</time>
      </trkpt>
      <trkpt lat="43.04151" lon="0.34385">
        <ele>620.141658</ele>
        <time>2022-04-13T17:26:34.350Z</time>
      </trkpt>
      <trkpt lat="43.04153" lon="0.3437">
        <ele>620.820665</ele>
        <time>2022-04-13T17:26:39.012Z</time>
      </trkpt>
      <trkpt lat="43.04145" lon="0.3432">
        <ele>623.201906</ele>
        <time>2022-04-13T17:26:55.835Z</time>
      </trkpt>
      <trkpt lat="43.04148" lon="0.34297">
        <ele>624.237822</ele>
        <time>2022-04-13T17:27:03.800Z</time>
      </trkpt>
      <trkpt lat="43.04159" lon="0.34259">
        <ele>626.561146</ele>
        <time>2022-04-13T17:27:18.955Z</time>
      </trkpt>
      <trkpt lat="43.0421" lon="0.34139">
        <ele>634.643864</ele>
        <time>2022-04-13T17:28:17.974Z</time>
      </trkpt>
      <trkpt lat="43.04267" lon="0.33943">
        <ele>644.017913</ele>
        <time>2022-04-13T17:29:43.392Z</time>
      </trkpt>
      <trkpt lat="43.04157" lon="0.33707">
        <ele>648.515271</ele>
        <time>2022-04-13T17:30:39.076Z</time>
      </trkpt>
      <trkpt lat="43.04156" lon="0.33701">
        <ele>648.530104</ele>
        <time>2022-04-13T17:30:39.846Z</time>
      </trkpt>
      <trkpt lat="43.04152" lon="0.33603">
        <ele>648.27089</ele>
        <time>2022-04-13T17:30:53.408Z</time>
      </trkpt>
      <trkpt lat="43.04238" lon="0.33564">
        <ele>646.313444</ele>
        <time>2022-04-13T17:31:10.268Z</time>
      </trkpt>
      <trkpt lat="43.04359" lon="0.33565">
        <ele>642.873676</ele>
        <time>2022-04-13T17:31:31.118Z</time>
      </trkpt>
      <trkpt lat="43.04425" lon="0.33554">
        <ele>640.358287</ele>
        <time>2022-04-13T17:31:42.017Z</time>
      </trkpt>
      <trkpt lat="43.04447" lon="0.33559">
        <ele>639.555372</ele>
        <time>2022-04-13T17:31:45.564Z</time>
      </trkpt>
      <trkpt lat="43.04492" lon="0.33583">
        <ele>637.857157</ele>
        <time>2022-04-13T17:31:53.629Z</time>
      </trkpt>
      <trkpt lat="43.04512" lon="0.33586">
        <ele>637.347074</ele>
        <time>2022-04-13T17:31:57.123Z</time>
      </trkpt>
      <trkpt lat="43.04531" lon="0.33583">
        <ele>636.874592</ele>
        <time>2022-04-13T17:32:00.321Z</time>
      </trkpt>
      <trkpt lat="43.04606" lon="0.33535">
        <ele>634.822633</ele>
        <time>2022-04-13T17:32:14.965Z</time>
      </trkpt>
      <trkpt lat="43.04633" lon="0.33544">
        <ele>634.141689</ele>
        <time>2022-04-13T17:32:20.129Z</time>
      </trkpt>
      <trkpt lat="43.04741" lon="0.33627">
        <ele>632.688488</ele>
        <time>2022-04-13T17:32:46.068Z</time>
      </trkpt>
      <trkpt lat="43.04769" lon="0.33644">
        <ele>632.411863</ele>
        <time>2022-04-13T17:32:52.193Z</time>
      </trkpt>
      <trkpt lat="43.04798" lon="0.33653">
        <ele>632.138508</ele>
        <time>2022-04-13T17:32:58.068Z</time>
      </trkpt>
      <trkpt lat="43.0485" lon="0.33602">
        <ele>631.554195</ele>
        <time>2022-04-13T17:33:11.680Z</time>
      </trkpt>
      <trkpt lat="43.04905" lon="0.3363">
        <ele>631.021591</ele>
        <time>2022-04-13T17:33:23.555Z</time>
      </trkpt>
      <trkpt lat="43.04929" lon="0.33639">
        <ele>630.792379</ele>
        <time>2022-04-13T17:33:28.340Z</time>
      </trkpt>
      <trkpt lat="43.04932" lon="0.3364">
        <ele>630.76954</ele>
        <time>2022-04-13T17:33:28.774Z</time>
      </trkpt>
      <trkpt lat="43.04939" lon="0.33621">
        <ele>630.628579</ele>
        <time>2022-04-13T17:33:31.931Z</time>
      </trkpt>
      <trkpt lat="43.04953" lon="0.33571">
        <ele>630.257502</ele>
        <time>2022-04-13T17:33:39.327Z</time>
      </trkpt>
      <trkpt lat="43.04961" lon="0.33562">
        <ele>630.1405</ele>
        <time>2022-04-13T17:33:41.340Z</time>
      </trkpt>
      <trkpt lat="43.05033" lon="0.33554">
        <ele>629.363016</ele>
        <time>2022-04-13T17:33:56.093Z</time>
      </trkpt>
      <trkpt lat="43.05098" lon="0.33538">
        <ele>628.648937</ele>
        <time>2022-04-13T17:34:09.953Z</time>
      </trkpt>
      <trkpt lat="43.05125" lon="0.33521">
        <ele>628.403216</ele>
        <time>2022-04-13T17:34:15.689Z</time>
      </trkpt>
      <trkpt lat="43.05145" lon="0.335">
        <ele>628.356553</ele>
        <time>2022-04-13T17:34:20.442Z</time>
      </trkpt>
      <trkpt lat="43.05176" lon="0.3349">
        <ele>628.297663</ele>
        <time>2022-04-13T17:34:26.402Z</time>
      </trkpt>
      <trkpt lat="43.05191" lon="0.33488">
        <ele>628.27001</ele>
        <time>2022-04-13T17:34:29.376Z</time>
      </trkpt>
      <trkpt lat="43.05241" lon="0.33481">
        <ele>628.176649</ele>
        <time>2022-04-13T17:34:40.232Z</time>
      </trkpt>
      <trkpt lat="43.05322" lon="0.33491">
        <ele>629.817207</ele>
        <time>2022-04-13T17:35:04.349Z</time>
      </trkpt>
      <trkpt lat="43.05343" lon="0.3343">
        <ele>632.469375</ele>
        <time>2022-04-13T17:35:22.958Z</time>
      </trkpt>
      <trkpt lat="43.05481" lon="0.33137">
        <ele>647.893984</ele>
        <time>2022-04-13T17:37:37.431Z</time>
      </trkpt>
      <trkpt lat="43.05491" lon="0.33116">
        <ele>649.070328</ele>
        <time>2022-04-13T17:37:44.646Z</time>
      </trkpt>
      <trkpt lat="43.05576" lon="0.33002">
        <ele>648.484405</ele>
        <time>2022-04-13T17:38:14.843Z</time>
      </trkpt>
      <trkpt lat="43.05635" lon="0.32938">
        <ele>647.373702</ele>
        <time>2022-04-13T17:38:26.371Z</time>
      </trkpt>
      <trkpt lat="43.05669" lon="0.32914">
        <ele>645.036088</ele>
        <time>2022-04-13T17:38:31.917Z</time>
      </trkpt>
      <trkpt lat="43.05789" lon="0.32864">
        <ele>637.286097</ele>
        <time>2022-04-13T17:38:49.968Z</time>
      </trkpt>
      <trkpt lat="43.05889" lon="0.32844">
        <ele>632.761352</ele>
        <time>2022-04-13T17:39:05.136Z</time>
      </trkpt>
      <trkpt lat="43.0596" lon="0.32821">
        <ele>629.612317</ele>
        <time>2022-04-13T17:39:17.201Z</time>
      </trkpt>
      <trkpt lat="43.05988" lon="0.32803">
        <ele>628.300156</ele>
        <time>2022-04-13T17:39:22.368Z</time>
      </trkpt>
      <trkpt lat="43.06077" lon="0.3271">
        <ele>623.61449</ele>
        <time>2022-04-13T17:39:40.170Z</time>
      </trkpt>
      <trkpt lat="43.06122" lon="0.32651">
        <ele>620.676454</ele>
        <time>2022-04-13T17:39:49.517Z</time>
      </trkpt>
      <trkpt lat="43.06172" lon="0.32525">
        <ele>613.599908</ele>
        <time>2022-04-13T17:40:04.515Z</time>
      </trkpt>
      <trkpt lat="43.06185" lon="0.32506">
        <ele>612.270835</ele>
        <time>2022-04-13T17:40:07.292Z</time>
      </trkpt>
      <trkpt lat="43.06212" lon="0.32485">
        <ele>610.201253</ele>
        <time>2022-04-13T17:40:11.580Z</time>
      </trkpt>
      <trkpt lat="43.0623" lon="0.32479">
        <ele>609.023617</ele>
        <time>2022-04-13T17:40:14.174Z</time>
      </trkpt>
      <trkpt lat="43.06272" lon="0.32478">
        <ele>606.755199</ele>
        <time>2022-04-13T17:40:20.151Z</time>
      </trkpt>
      <trkpt lat="43.06291" lon="0.32472">
        <ele>605.668863</ele>
        <time>2022-04-13T17:40:23.120Z</time>
      </trkpt>
      <trkpt lat="43.06338" lon="0.32375">
        <ele>601.027678</ele>
        <time>2022-04-13T17:40:36.041Z</time>
      </trkpt>
      <trkpt lat="43.06372" lon="0.32274">
        <ele>597.392862</ele>
        <time>2022-04-13T17:40:48.714Z</time>
      </trkpt>
      <trkpt lat="43.06398" lon="0.32259">
        <ele>596.270323</ele>
        <time>2022-04-13T17:40:53.174Z</time>
      </trkpt>
      <trkpt lat="43.06433" lon="0.32268">
        <ele>594.859679</ele>
        <time>2022-04-13T17:40:58.917Z</time>
      </trkpt>
      <trkpt lat="43.06455" lon="0.32265">
        <ele>594.024186</ele>
        <time>2022-04-13T17:41:02.363Z</time>
      </trkpt>
      <trkpt lat="43.06509" lon="0.32225">
        <ele>591.302051</ele>
        <time>2022-04-13T17:41:12.086Z</time>
      </trkpt>
      <trkpt lat="43.06543" lon="0.32168">
        <ele>588.35596</ele>
        <time>2022-04-13T17:41:20.385Z</time>
      </trkpt>
      <trkpt lat="43.06618" lon="0.3201">
        <ele>580.438098</ele>
        <time>2022-04-13T17:41:40.491Z</time>
      </trkpt>
      <trkpt lat="43.06655" lon="0.31916">
        <ele>575.171847</ele>
        <time>2022-04-13T17:41:51.562Z</time>
      </trkpt>
      <trkpt lat="43.06683" lon="0.31897">
        <ele>573.055013</ele>
        <time>2022-04-13T17:41:56.018Z</time>
      </trkpt>
      <trkpt lat="43.06698" lon="0.31888">
        <ele>571.958668</ele>
        <time>2022-04-13T17:41:58.338Z</time>
      </trkpt>
      <trkpt lat="43.06712" lon="0.31874">
        <ele>570.753868</ele>
        <time>2022-04-13T17:42:00.894Z</time>
      </trkpt>
      <trkpt lat="43.0672" lon="0.31849">
        <ele>569.998436</ele>
        <time>2022-04-13T17:42:03.683Z</time>
      </trkpt>
      <trkpt lat="43.06723" lon="0.31774">
        <ele>568.21015</ele>
        <time>2022-04-13T17:42:11.926Z</time>
      </trkpt>
      <trkpt lat="43.0672" lon="0.31683">
        <ele>566.061808</ele>
        <time>2022-04-13T17:42:22.932Z</time>
      </trkpt>
      <trkpt lat="43.06727" lon="0.31635">
        <ele>564.925799</ele>
        <time>2022-04-13T17:42:30.022Z</time>
      </trkpt>
      <trkpt lat="43.06778" lon="0.31486">
        <ele>567.387818</ele>
        <time>2022-04-13T17:43:06.617Z</time>
      </trkpt>
      <trkpt lat="43.06805" lon="0.31433">
        <ele>568.506552</ele>
        <time>2022-04-13T17:43:23.098Z</time>
      </trkpt>
      <trkpt lat="43.06843" lon="0.31385">
        <ele>569.694818</ele>
        <time>2022-04-13T17:43:44.395Z</time>
      </trkpt>
      <trkpt lat="43.06885" lon="0.31325">
        <ele>571.03098</ele>
        <time>2022-04-13T17:44:07.697Z</time>
      </trkpt>
      <trkpt lat="43.06905" lon="0.31311">
        <ele>571.537958</ele>
        <time>2022-04-13T17:44:14.903Z</time>
      </trkpt>
      <trkpt lat="43.06937" lon="0.31316">
        <ele>572.269091</ele>
        <time>2022-04-13T17:44:23.652Z</time>
      </trkpt>
      <trkpt lat="43.06961" lon="0.31329">
        <ele>572.850928</ele>
        <time>2022-04-13T17:44:30.079Z</time>
      </trkpt>
      <trkpt lat="43.07023" lon="0.31394">
        <ele>569.830763</ele>
        <time>2022-04-13T17:44:43.166Z</time>
      </trkpt>
      <trkpt lat="43.07055" lon="0.31395">
        <ele>568.449866</ele>
        <time>2022-04-13T17:44:48.293Z</time>
      </trkpt>
      <trkpt lat="43.07152" lon="0.31368">
        <ele>563.188048</ele>
        <time>2022-04-13T17:45:02.573Z</time>
      </trkpt>
      <trkpt lat="43.07164" lon="0.31312">
        <ele>559.581117</ele>
        <time>2022-04-13T17:45:08.260Z</time>
      </trkpt>
      <trkpt lat="43.07212" lon="0.31194">
        <ele>551.190751</ele>
        <time>2022-04-13T17:45:21.927Z</time>
      </trkpt>
      <trkpt lat="43.07218" lon="0.3117">
        <ele>549.691263</ele>
        <time>2022-04-13T17:45:24.408Z</time>
      </trkpt>
      <trkpt lat="43.07218" lon="0.31142">
        <ele>548.473242</ele>
        <time>2022-04-13T17:45:27.497Z</time>
      </trkpt>
      <trkpt lat="43.07174" lon="0.31048">
        <ele>543.604291</ele>
        <time>2022-04-13T17:45:39.350Z</time>
      </trkpt>
      <trkpt lat="43.07173" lon="0.31031">
        <ele>542.858437</ele>
        <time>2022-04-13T17:45:41.290Z</time>
      </trkpt>
      <trkpt lat="43.07208" lon="0.31003">
        <ele>540.497084</ele>
        <time>2022-04-13T17:45:47.741Z</time>
      </trkpt>
      <trkpt lat="43.07247" lon="0.30982">
        <ele>536.809476</ele>
        <time>2022-04-13T17:45:54.836Z</time>
      </trkpt>
      <trkpt lat="43.07297" lon="0.3097">
        <ele>530.964303</ele>
        <time>2022-04-13T17:46:01.850Z</time>
      </trkpt>
      <trkpt lat="43.07318" lon="0.30953">
        <ele>528.156208</ele>
        <time>2022-04-13T17:46:05.082Z</time>
      </trkpt>
      <trkpt lat="43.07334" lon="0.30924">
        <ele>525.083417</ele>
        <time>2022-04-13T17:46:08.579Z</time>
      </trkpt>
      <trkpt lat="43.07343" lon="0.30894">
        <ele>522.342392</ele>
        <time>2022-04-13T17:46:11.672Z</time>
      </trkpt>
      <trkpt lat="43.07342" lon="0.30842">
        <ele>517.478318</ele>
        <time>2022-04-13T17:46:16.601Z</time>
      </trkpt>
      <trkpt lat="43.07335" lon="0.30842">
        <ele>515.966307</ele>
        <time>2022-04-13T17:46:17.483Z</time>
      </trkpt>
      <trkpt lat="43.07316" lon="0.30802">
        <ele>508.240989</ele>
        <time>2022-04-13T17:46:25.378Z</time>
      </trkpt>
      <trkpt lat="43.07187" lon="0.30587">
        <ele>466.369608</ele>
        <time>2022-04-13T17:47:10.449Z</time>
      </trkpt>
      <trkpt lat="43.07182" lon="0.30584">
        <ele>465.310996</ele>
        <time>2022-04-13T17:47:11.749Z</time>
      </trkpt>
      <trkpt lat="43.0716" lon="0.30537">
        <ele>457.929883</ele>
        <time>2022-04-13T17:47:16.966Z</time>
      </trkpt>
      <trkpt lat="43.07142" lon="0.30444">
        <ele>445.736759</ele>
        <time>2022-04-13T17:47:26.204Z</time>
      </trkpt>
      <trkpt lat="43.07128" lon="0.30381">
        <ele>441.711318</ele>
        <time>2022-04-13T17:47:32.633Z</time>
      </trkpt>
      <trkpt lat="43.07125" lon="0.30287">
        <ele>435.877488</ele>
        <time>2022-04-13T17:47:42.425Z</time>
      </trkpt>
      <trkpt lat="43.07113" lon="0.30181">
        <ele>429.648402</ele>
        <time>2022-04-13T17:47:53.799Z</time>
      </trkpt>
      <trkpt lat="43.07085" lon="0.30057">
        <ele>423.603681</ele>
        <time>2022-04-13T17:48:07.482Z</time>
      </trkpt>
      <trkpt lat="43.07062" lon="0.29992">
        <ele>420.207842</ele>
        <time>2022-04-13T17:48:15.115Z</time>
      </trkpt>
      <trkpt lat="43.0704" lon="0.29817">
        <ele>414.050821</ele>
        <time>2022-04-13T17:48:34.505Z</time>
      </trkpt>
      <trkpt lat="43.06999" lon="0.29647">
        <ele>408.737728</ele>
        <time>2022-04-13T17:48:56.699Z</time>
      </trkpt>
      <trkpt lat="43.06985" lon="0.29606">
        <ele>407.538822</ele>
        <time>2022-04-13T17:49:02.176Z</time>
      </trkpt>
      <trkpt lat="43.06911" lon="0.2951">
        <ele>403.701328</ele>
        <time>2022-04-13T17:49:17.631Z</time>
      </trkpt>
      <trkpt lat="43.06905" lon="0.29493">
        <ele>403.136948</ele>
        <time>2022-04-13T17:49:19.662Z</time>
      </trkpt>
      <trkpt lat="43.06914" lon="0.2932">
        <ele>397.98127</ele>
        <time>2022-04-13T17:49:39.279Z</time>
      </trkpt>
      <trkpt lat="43.06982" lon="0.2932">
        <ele>397.220153</ele>
        <time>2022-04-13T17:49:51.196Z</time>
      </trkpt>
      <trkpt lat="43.07053" lon="0.29323">
        <ele>396.999848</ele>
        <time>2022-04-13T17:50:08.969Z</time>
      </trkpt>
      <trkpt lat="43.07097" lon="0.29295">
        <ele>396.850248</ele>
        <time>2022-04-13T17:50:24.627Z</time>
      </trkpt>
      <trkpt lat="43.0712" lon="0.29288">
        <ele>396.361533</ele>
        <time>2022-04-13T17:50:30.992Z</time>
      </trkpt>
      <trkpt lat="43.07224" lon="0.29301">
        <ele>393.569135</ele>
        <time>2022-04-13T17:50:48.317Z</time>
      </trkpt>
      <trkpt lat="43.07402" lon="0.29377">
        <ele>387.453503</ele>
        <time>2022-04-13T17:51:16.574Z</time>
      </trkpt>
      <trkpt lat="43.07404" lon="0.29386">
        <ele>387.207613</ele>
        <time>2022-04-13T17:51:17.742Z</time>
      </trkpt>
      <trkpt lat="43.07409" lon="0.29414">
        <ele>386.476477</ele>
        <time>2022-04-13T17:51:21.598Z</time>
      </trkpt>
      <trkpt lat="43.0743" lon="0.29463">
        <ele>386.173033</ele>
        <time>2022-04-13T17:51:29.605Z</time>
      </trkpt>
      <trkpt lat="43.07434" lon="0.29512">
        <ele>387.260832</ele>
        <time>2022-04-13T17:51:40.767Z</time>
      </trkpt>
      <trkpt lat="43.07432" lon="0.29548">
        <ele>388.061979</ele>
        <time>2022-04-13T17:51:51.051Z</time>
      </trkpt>
      <trkpt lat="43.07419" lon="0.29612">
        <ele>389.542668</ele>
        <time>2022-04-13T17:52:12.252Z</time>
      </trkpt>
      <trkpt lat="43.07419" lon="0.2963">
        <ele>389.928195</ele>
        <time>2022-04-13T17:52:17.324Z</time>
      </trkpt>
      <trkpt lat="43.0742" lon="0.29633">
        <ele>390.014115</ele>
        <time>2022-04-13T17:52:18.458Z</time>
      </trkpt>
      <trkpt lat="43.07429" lon="0.2965">
        <ele>390.486576</ele>
        <time>2022-04-13T17:52:24.559Z</time>
      </trkpt>
      <trkpt lat="43.07456" lon="0.29678">
        <ele>391.627764</ele>
        <time>2022-04-13T17:52:36.860Z</time>
      </trkpt>
      <trkpt lat="43.07494" lon="0.2973">
        <ele>393.769848</ele>
        <time>2022-04-13T17:52:56.962Z</time>
      </trkpt>
      <trkpt lat="43.07509" lon="0.29759">
        <ele>394.815128</ele>
        <time>2022-04-13T17:53:06.593Z</time>
      </trkpt>
      <trkpt lat="43.07525" lon="0.29824">
        <ele>396.818439</ele>
        <time>2022-04-13T17:53:26.727Z</time>
      </trkpt>
      <trkpt lat="43.07523" lon="0.29835">
        <ele>397.141934</ele>
        <time>2022-04-13T17:53:29.737Z</time>
      </trkpt>
      <trkpt lat="43.07505" lon="0.2985">
        <ele>397.997646</ele>
        <time>2022-04-13T17:53:38.224Z</time>
      </trkpt>
      <trkpt lat="43.07457" lon="0.29926">
        <ele>400.769284</ele>
        <time>2022-04-13T17:54:05.182Z</time>
      </trkpt>
      <trkpt lat="43.07443" lon="0.30031">
        <ele>403.693471</ele>
        <time>2022-04-13T17:54:32.821Z</time>
      </trkpt>
      <trkpt lat="43.07421" lon="0.30094">
        <ele>405.751682</ele>
        <time>2022-04-13T17:54:52.198Z</time>
      </trkpt>
      <trkpt lat="43.07416" lon="0.30126">
        <ele>406.905651</ele>
        <time>2022-04-13T17:55:02.046Z</time>
      </trkpt>
      <trkpt lat="43.07418" lon="0.3015">
        <ele>407.784967</ele>
        <time>2022-04-13T17:55:09.723Z</time>
      </trkpt>
      <trkpt lat="43.07428" lon="0.30169">
        <ele>408.604121</ele>
        <time>2022-04-13T17:55:17.026Z</time>
      </trkpt>
      <trkpt lat="43.0745" lon="0.3017">
        <ele>409.649164</ele>
        <time>2022-04-13T17:55:26.205Z</time>
      </trkpt>
      <trkpt lat="43.07497" lon="0.30147">
        <ele>412.102624</ele>
        <time>2022-04-13T17:55:47.312Z</time>
      </trkpt>
      <trkpt lat="43.07588" lon="0.30144">
        <ele>416.793557</ele>
        <time>2022-04-13T17:56:26.526Z</time>
      </trkpt>
      <trkpt lat="43.07643" lon="0.30126">
        <ele>419.869606</ele>
        <time>2022-04-13T17:56:51.745Z</time>
      </trkpt>
      <trkpt lat="43.07723" lon="0.30129">
        <ele>424.13585</ele>
        <time>2022-04-13T17:57:27.203Z</time>
      </trkpt>
      <trkpt lat="43.07753" lon="0.30153">
        <ele>425.85497</ele>
        <time>2022-04-13T17:57:42.234Z</time>
      </trkpt>
      <trkpt lat="43.07823" lon="0.30188">
        <ele>429.55483</ele>
        <time>2022-04-13T17:58:13.953Z</time>
      </trkpt>
      <trkpt lat="43.07863" lon="0.30226">
        <ele>431.973806</ele>
        <time>2022-04-13T17:58:33.817Z</time>
      </trkpt>
      <trkpt lat="43.0788" lon="0.30234">
        <ele>433.164033</ele>
        <time>2022-04-13T17:58:40.880Z</time>
      </trkpt>
      <trkpt lat="43.07888" lon="0.30259">
        <ele>434.746036</ele>
        <time>2022-04-13T17:58:48.215Z</time>
      </trkpt>
      <trkpt lat="43.07918" lon="0.30289">
        <ele>437.738742</ele>
        <time>2022-04-13T17:59:03.031Z</time>
      </trkpt>
      <trkpt lat="43.07934" lon="0.30325">
        <ele>440.195221</ele>
        <time>2022-04-13T17:59:18.062Z</time>
      </trkpt>
      <trkpt lat="43.07949" lon="0.30333">
        <ele>441.498353</ele>
        <time>2022-04-13T17:59:27.500Z</time>
      </trkpt>
      <trkpt lat="43.08018" lon="0.30267">
        <ele>449.354408</ele>
        <time>2022-04-13T18:00:25.142Z</time>
      </trkpt>
      <trkpt lat="43.08148" lon="0.30211">
        <ele>468.792997</ele>
        <time>2022-04-13T18:02:13.331Z</time>
      </trkpt>
      <trkpt lat="43.08181" lon="0.30208">
        <ele>473.358382</ele>
        <time>2022-04-13T18:02:44.958Z</time>
      </trkpt>
      <trkpt lat="43.08251" lon="0.30217">
        <ele>481.400218</ele>
        <time>2022-04-13T18:03:44.948Z</time>
      </trkpt>
      <trkpt lat="43.0827" lon="0.30224">
        <ele>483.635308</ele>
        <time>2022-04-13T18:03:59.343Z</time>
      </trkpt>
      <trkpt lat="43.08332" lon="0.30273">
        <ele>491.800154</ele>
        <time>2022-04-13T18:04:37.438Z</time>
      </trkpt>
      <trkpt lat="43.08378" lon="0.30331">
        <ele>494.403626</ele>
        <time>2022-04-13T18:05:03.973Z</time>
      </trkpt>
      <trkpt lat="43.08382" lon="0.3035">
        <ele>494.804163</ele>
        <time>2022-04-13T18:05:10.255Z</time>
      </trkpt>
      <trkpt lat="43.08377" lon="0.30358">
        <ele>495.008514</ele>
        <time>2022-04-13T18:05:12.651Z</time>
      </trkpt>
      <trkpt lat="43.08368" lon="0.30358">
        <ele>495.254451</ele>
        <time>2022-04-13T18:05:15.529Z</time>
      </trkpt>
      <trkpt lat="43.08332" lon="0.30343">
        <ele>496.289254</ele>
        <time>2022-04-13T18:05:26.947Z</time>
      </trkpt>
      <trkpt lat="43.083" lon="0.30348">
        <ele>497.151925</ele>
        <time>2022-04-13T18:05:34.378Z</time>
      </trkpt>
      <trkpt lat="43.08252" lon="0.30367">
        <ele>498.26427</ele>
        <time>2022-04-13T18:05:44.226Z</time>
      </trkpt>
      <trkpt lat="43.08238" lon="0.30383">
        <ele>498.570412</ele>
        <time>2022-04-13T18:05:48.268Z</time>
      </trkpt>
      <trkpt lat="43.08171" lon="0.30495">
        <ele>500.263905</ele>
        <time>2022-04-13T18:06:16.987Z</time>
      </trkpt>
      <trkpt lat="43.08161" lon="0.30517">
        <ele>500.568266</ele>
        <time>2022-04-13T18:06:22.850Z</time>
      </trkpt>
      <trkpt lat="43.08162" lon="0.30536">
        <ele>500.795475</ele>
        <time>2022-04-13T18:06:28.422Z</time>
      </trkpt>
      <trkpt lat="43.08167" lon="0.30546">
        <ele>501.51884</ele>
        <time>2022-04-13T18:06:31.991Z</time>
      </trkpt>
      <trkpt lat="43.08178" lon="0.30548">
        <ele>502.378544</ele>
        <time>2022-04-13T18:06:36.446Z</time>
      </trkpt>
      <trkpt lat="43.08187" lon="0.30541">
        <ele>503.180752</ele>
        <time>2022-04-13T18:06:41.146Z</time>
      </trkpt>
      <trkpt lat="43.08216" lon="0.30495">
        <ele>506.722377</ele>
        <time>2022-04-13T18:07:03.297Z</time>
      </trkpt>
      <trkpt lat="43.0824" lon="0.30476">
        <ele>508.950292</ele>
        <time>2022-04-13T18:07:18.584Z</time>
      </trkpt>
      <trkpt lat="43.08265" lon="0.30467">
        <ele>511.043529</ele>
        <time>2022-04-13T18:07:34.194Z</time>
      </trkpt>
      <trkpt lat="43.08295" lon="0.30469">
        <ele>513.475026</ele>
        <time>2022-04-13T18:07:54.683Z</time>
      </trkpt>
      <trkpt lat="43.08464" lon="0.30552">
        <ele>532.62631</ele>
        <time>2022-04-13T18:09:53.552Z</time>
      </trkpt>
      <trkpt lat="43.085" lon="0.30562">
        <ele>536.543743</ele>
        <time>2022-04-13T18:10:18.836Z</time>
      </trkpt>
      <trkpt lat="43.08526" lon="0.30558">
        <ele>539.132693</ele>
        <time>2022-04-13T18:10:37.525Z</time>
      </trkpt>
      <trkpt lat="43.0855" lon="0.30508">
        <ele>543.453747</ele>
        <time>2022-04-13T18:11:05.038Z</time>
      </trkpt>
      <trkpt lat="43.08581" lon="0.30582">
        <ele>549.567849</ele>
        <time>2022-04-13T18:11:41.729Z</time>
      </trkpt>
      <trkpt lat="43.08604" lon="0.30618">
        <ele>553.021603</ele>
        <time>2022-04-13T18:12:04.382Z</time>
      </trkpt>
      <trkpt lat="43.08613" lon="0.3065">
        <ele>554.539774</ele>
        <time>2022-04-13T18:12:20.192Z</time>
      </trkpt>
      <trkpt lat="43.08617" lon="0.30708">
        <ele>557.178861</ele>
        <time>2022-04-13T18:12:48.324Z</time>
      </trkpt>
      <trkpt lat="43.08606" lon="0.30735">
        <ele>558.52639</ele>
        <time>2022-04-13T18:13:02.576Z</time>
      </trkpt>
      <trkpt lat="43.08611" lon="0.30737">
        <ele>558.813334</ele>
        <time>2022-04-13T18:13:05.009Z</time>
      </trkpt>
      <trkpt lat="43.08657" lon="0.30769">
        <ele>561.978495</ele>
        <time>2022-04-13T18:13:29.571Z</time>
      </trkpt>
      <trkpt lat="43.08686" lon="0.30821">
        <ele>563.610449</ele>
        <time>2022-04-13T18:13:44.011Z</time>
      </trkpt>
      <trkpt lat="43.08752" lon="0.30909">
        <ele>561.397277</ele>
        <time>2022-04-13T18:14:00.345Z</time>
      </trkpt>
      <trkpt lat="43.08756" lon="0.3093">
        <ele>561.019368</ele>
        <time>2022-04-13T18:14:02.903Z</time>
      </trkpt>
      <trkpt lat="43.08753" lon="0.30972">
        <ele>560.265982</ele>
        <time>2022-04-13T18:14:07.970Z</time>
      </trkpt>
      <trkpt lat="43.08737" lon="0.3103">
        <ele>559.079557</ele>
        <time>2022-04-13T18:14:14.946Z</time>
      </trkpt>
      <trkpt lat="43.08739" lon="0.31033">
        <ele>558.997073</ele>
        <time>2022-04-13T18:14:15.366Z</time>
      </trkpt>
      <trkpt lat="43.08812" lon="0.31208">
        <ele>554.616118</ele>
        <time>2022-04-13T18:14:38.845Z</time>
      </trkpt>
      <trkpt lat="43.08827" lon="0.31291">
        <ele>556.521001</ele>
        <time>2022-04-13T18:14:57.708Z</time>
      </trkpt>
      <trkpt lat="43.08835" lon="0.31372">
        <ele>559.058175</ele>
        <time>2022-04-13T18:15:20.694Z</time>
      </trkpt>
      <trkpt lat="43.08827" lon="0.31547">
        <ele>566.560831</ele>
        <time>2022-04-13T18:16:28.410Z</time>
      </trkpt>
      <trkpt lat="43.08829" lon="0.31595">
        <ele>569.280391</ele>
        <time>2022-04-13T18:16:47.123Z</time>
      </trkpt>
      <trkpt lat="43.08841" lon="0.31691">
        <ele>574.706989</ele>
        <time>2022-04-13T18:17:24.672Z</time>
      </trkpt>
      <trkpt lat="43.08818" lon="0.31819">
        <ele>581.99552</ele>
        <time>2022-04-13T18:18:16.718Z</time>
      </trkpt>
      <trkpt lat="43.08819" lon="0.32034">
        <ele>593.73529</ele>
        <time>2022-04-13T18:19:37.290Z</time>
      </trkpt>
      <trkpt lat="43.08827" lon="0.32347">
        <ele>608.828164</ele>
        <time>2022-04-13T18:21:35.615Z</time>
      </trkpt>
      <trkpt lat="43.08822" lon="0.32424">
        <ele>612.070738</ele>
        <time>2022-04-13T18:21:58.172Z</time>
      </trkpt>
      <trkpt lat="43.08787" lon="0.32597">
        <ele>615.45472</ele>
        <time>2022-04-13T18:22:38.898Z</time>
      </trkpt>
      <trkpt lat="43.0878" lon="0.32682">
        <ele>616.787182</ele>
        <time>2022-04-13T18:22:55.701Z</time>
      </trkpt>
      <trkpt lat="43.08789" lon="0.32832">
        <ele>619.619774</ele>
        <time>2022-04-13T18:23:29.159Z</time>
      </trkpt>
      <trkpt lat="43.08765" lon="0.33129">
        <ele>626.953371</ele>
        <time>2022-04-13T18:24:49.012Z</time>
      </trkpt>
      <trkpt lat="43.08761" lon="0.33195">
        <ele>628.839763</ele>
        <time>2022-04-13T18:25:07.864Z</time>
      </trkpt>
      <trkpt lat="43.08761" lon="0.33221">
        <ele>629.647729</ele>
        <time>2022-04-13T18:25:15.473Z</time>
      </trkpt>
      <trkpt lat="43.08759" lon="0.33426">
        <ele>636.014486</ele>
        <time>2022-04-13T18:26:15.333Z</time>
      </trkpt>
      <trkpt lat="43.08754" lon="0.3349">
        <ele>637.428281</ele>
        <time>2022-04-13T18:26:33.423Z</time>
      </trkpt>
      <trkpt lat="43.0875" lon="0.33608">
        <ele>639.987893</ele>
        <time>2022-04-13T18:27:02.424Z</time>
      </trkpt>
      <trkpt lat="43.08753" lon="0.33644">
        <ele>640.796208</ele>
        <time>2022-04-13T18:27:10.612Z</time>
      </trkpt>
      <trkpt lat="43.08779" lon="0.33789">
        <ele>642.897117</ele>
        <time>2022-04-13T18:27:41.841Z</time>
      </trkpt>
      <trkpt lat="43.08748" lon="0.33841">
        <ele>643.765652</ele>
        <time>2022-04-13T18:27:56.280Z</time>
      </trkpt>
      <trkpt lat="43.08664" lon="0.3401">
        <ele>646.163434</ele>
        <time>2022-04-13T18:28:40.469Z</time>
      </trkpt>
      <trkpt lat="43.08502" lon="0.34367">
        <ele>649.712836</ele>
        <time>2022-04-13T18:30:02.104Z</time>
      </trkpt>
      <trkpt lat="43.08332" lon="0.34743">
        <ele>652.913983</ele>
        <time>2022-04-13T18:31:25.049Z</time>
      </trkpt>
      <trkpt lat="43.08215" lon="0.35003">
        <ele>656.819043</ele>
        <time>2022-04-13T18:32:31.409Z</time>
      </trkpt>
      <trkpt lat="43.08091" lon="0.35281">
        <ele>660.489709</ele>
        <time>2022-04-13T18:33:42.814Z</time>
      </trkpt>
      <trkpt lat="43.08055" lon="0.3536">
        <ele>660.957811</ele>
        <time>2022-04-13T18:33:58.091Z</time>
      </trkpt>
      <trkpt lat="43.08034" lon="0.35424">
        <ele>660.118413</ele>
        <time>2022-04-13T18:34:07.907Z</time>
      </trkpt>
      <trkpt lat="43.08025" lon="0.35479">
        <ele>659.44334</ele>
        <time>2022-04-13T18:34:15.208Z</time>
      </trkpt>
      <trkpt lat="43.08018" lon="0.35727">
        <ele>655.404217</ele>
        <time>2022-04-13T18:34:45.888Z</time>
      </trkpt>
      <trkpt lat="43.0802" lon="0.35831">
        <ele>653.410844</ele>
        <time>2022-04-13T18:34:58.627Z</time>
      </trkpt>
      <trkpt lat="43.08025" lon="0.35849">
        <ele>653.053836</ele>
        <time>2022-04-13T18:35:00.835Z</time>
      </trkpt>
      <trkpt lat="43.08073" lon="0.35946">
        <ele>650.800719</ele>
        <time>2022-04-13T18:35:15.393Z</time>
      </trkpt>
      <trkpt lat="43.08079" lon="0.35987">
        <ele>649.990475</ele>
        <time>2022-04-13T18:35:20.629Z</time>
      </trkpt>
      <trkpt lat="43.08078" lon="0.36005">
        <ele>649.651239</ele>
        <time>2022-04-13T18:35:22.818Z</time>
      </trkpt>
      <trkpt lat="43.08066" lon="0.36049">
        <ele>648.746227</ele>
        <time>2022-04-13T18:35:28.567Z</time>
      </trkpt>
      <trkpt lat="43.08056" lon="0.36066">
        <ele>648.135835</ele>
        <time>2022-04-13T18:35:31.269Z</time>
      </trkpt>
      <trkpt lat="43.08032" lon="0.361">
        <ele>646.82079</ele>
        <time>2022-04-13T18:35:36.969Z</time>
      </trkpt>
      <trkpt lat="43.08021" lon="0.36134">
        <ele>645.7579</ele>
        <time>2022-04-13T18:35:41.354Z</time>
      </trkpt>
      <trkpt lat="43.08019" lon="0.36141">
        <ele>645.563723</ele>
        <time>2022-04-13T18:35:42.149Z</time>
      </trkpt>
      <trkpt lat="43.08018" lon="0.36147">
        <ele>645.395878</ele>
        <time>2022-04-13T18:35:42.826Z</time>
      </trkpt>
      <trkpt lat="43.08017" lon="0.36194">
        <ele>644.059131</ele>
        <time>2022-04-13T18:35:48.179Z</time>
      </trkpt>
      <trkpt lat="43.08023" lon="0.3623">
        <ele>643.045667</ele>
        <time>2022-04-13T18:35:52.248Z</time>
      </trkpt>
      <trkpt lat="43.08028" lon="0.36269">
        <ele>641.927599</ele>
        <time>2022-04-13T18:35:56.726Z</time>
      </trkpt>
      <trkpt lat="43.08023" lon="0.36281">
        <ele>641.455368</ele>
        <time>2022-04-13T18:35:58.473Z</time>
      </trkpt>
      <trkpt lat="43.08024" lon="0.36304">
        <ele>640.719708</ele>
        <time>2022-04-13T18:36:00.999Z</time>
      </trkpt>
      <trkpt lat="43.08032" lon="0.36317">
        <ele>640.148483</ele>
        <time>2022-04-13T18:36:02.940Z</time>
      </trkpt>
      <trkpt lat="43.08039" lon="0.36358">
        <ele>638.761384</ele>
        <time>2022-04-13T18:36:07.665Z</time>
      </trkpt>
      <trkpt lat="43.08046" lon="0.3643">
        <ele>636.355366</ele>
        <time>2022-04-13T18:36:15.890Z</time>
      </trkpt>
      <trkpt lat="43.08058" lon="0.36471">
        <ele>634.915385</ele>
        <time>2022-04-13T18:36:20.811Z</time>
      </trkpt>
      <trkpt lat="43.0808" lon="0.36516">
        <ele>633.061833</ele>
        <time>2022-04-13T18:36:26.842Z</time>
      </trkpt>
      <trkpt lat="43.08197" lon="0.36709">
        <ele>623.422254</ele>
        <time>2022-04-13T18:36:54.421Z</time>
      </trkpt>
      <trkpt lat="43.08217" lon="0.3677">
        <ele>620.37174</ele>
        <time>2022-04-13T18:37:01.565Z</time>
      </trkpt>
      <trkpt lat="43.08224" lon="0.36804">
        <ele>618.800305</ele>
        <time>2022-04-13T18:37:05.157Z</time>
      </trkpt>
      <trkpt lat="43.08228" lon="0.36828">
        <ele>617.713322</ele>
        <time>2022-04-13T18:37:07.743Z</time>
      </trkpt>
      <trkpt lat="43.08231" lon="0.36857">
        <ele>616.382157</ele>
        <time>2022-04-13T18:37:10.811Z</time>
      </trkpt>
      <trkpt lat="43.08232" lon="0.36864">
        <ele>616.078508</ele>
        <time>2022-04-13T18:37:11.555Z</time>
      </trkpt>
      <trkpt lat="43.08261" lon="0.37067">
        <ele>608.659411</ele>
        <time>2022-04-13T18:37:34.018Z</time>
      </trkpt>
      <trkpt lat="43.08285" lon="0.37176">
        <ele>605.14004</ele>
        <time>2022-04-13T18:37:47.942Z</time>
      </trkpt>
      <trkpt lat="43.08288" lon="0.37218">
        <ele>604.167515</ele>
        <time>2022-04-13T18:37:53.163Z</time>
      </trkpt>
      <trkpt lat="43.08283" lon="0.37226">
        <ele>603.914532</ele>
        <time>2022-04-13T18:37:54.538Z</time>
      </trkpt>
      <trkpt lat="43.08281" lon="0.37246">
        <ele>603.449394</ele>
        <time>2022-04-13T18:37:57.073Z</time>
      </trkpt>
      <trkpt lat="43.0827" lon="0.37273">
        <ele>602.736379</ele>
        <time>2022-04-13T18:38:00.985Z</time>
      </trkpt>
      <trkpt lat="43.08264" lon="0.37286">
        <ele>602.388887</ele>
        <time>2022-04-13T18:38:02.876Z</time>
      </trkpt>
      <trkpt lat="43.08258" lon="0.3736">
        <ele>600.662545</ele>
        <time>2022-04-13T18:38:11.829Z</time>
      </trkpt>
      <trkpt lat="43.0824" lon="0.37462">
        <ele>597.502742</ele>
        <time>2022-04-13T18:38:23.441Z</time>
      </trkpt>
      <trkpt lat="43.08229" lon="0.37514">
        <ele>595.608728</ele>
        <time>2022-04-13T18:38:29.478Z</time>
      </trkpt>
      <trkpt lat="43.08213" lon="0.3755">
        <ele>594.163859</ele>
        <time>2022-04-13T18:38:34.085Z</time>
      </trkpt>
      <trkpt lat="43.0821" lon="0.37555">
        <ele>593.960002</ele>
        <time>2022-04-13T18:38:34.765Z</time>
      </trkpt>
      <trkpt lat="43.08187" lon="0.37591">
        <ele>592.320832</ele>
        <time>2022-04-13T18:38:40.057Z</time>
      </trkpt>
      <trkpt lat="43.0817" lon="0.37619">
        <ele>591.116531</ele>
        <time>2022-04-13T18:38:44.204Z</time>
      </trkpt>
      <trkpt lat="43.08128" lon="0.37687">
        <ele>589.010318</ele>
        <time>2022-04-13T18:38:54.287Z</time>
      </trkpt>
      <trkpt lat="43.08115" lon="0.37707">
        <ele>588.394154</ele>
        <time>2022-04-13T18:38:57.343Z</time>
      </trkpt>
      <trkpt lat="43.08036" lon="0.37835">
        <ele>584.942042</ele>
        <time>2022-04-13T18:39:18.537Z</time>
      </trkpt>
      <trkpt lat="43.07962" lon="0.37953">
        <ele>583.056989</ele>
        <time>2022-04-13T18:39:39.432Z</time>
      </trkpt>
      <trkpt lat="43.0794" lon="0.3799">
        <ele>582.480352</ele>
        <time>2022-04-13T18:39:45.860Z</time>
      </trkpt>
      <trkpt lat="43.07963" lon="0.38039">
        <ele>581.985774</ele>
        <time>2022-04-13T18:39:56.429Z</time>
      </trkpt>
      <trkpt lat="43.07956" lon="0.38067">
        <ele>581.732183</ele>
        <time>2022-04-13T18:40:01.986Z</time>
      </trkpt>
      <trkpt lat="43.07938" lon="0.38092">
        <ele>581.429952</ele>
        <time>2022-04-13T18:40:08.642Z</time>
      </trkpt>
      <trkpt lat="43.07967" lon="0.38115">
        <ele>581.04854</ele>
        <time>2022-04-13T18:40:14.908Z</time>
      </trkpt>
      <trkpt lat="43.07992" lon="0.38135">
        <ele>580.707137</ele>
        <time>2022-04-13T18:40:20.480Z</time>
      </trkpt>
      <trkpt lat="43.08017" lon="0.38155">
        <ele>580.380993</ele>
        <time>2022-04-13T18:40:26.273Z</time>
      </trkpt>
      <trkpt lat="43.08028" lon="0.38167">
        <ele>580.28679</ele>
        <time>2022-04-13T18:40:29.107Z</time>
      </trkpt>
      <trkpt lat="43.08072" lon="0.3825">
        <ele>579.771942</ele>
        <time>2022-04-13T18:40:44.418Z</time>
      </trkpt>
      <trkpt lat="43.08093" lon="0.38297">
        <ele>579.493271</ele>
        <time>2022-04-13T18:40:52.487Z</time>
      </trkpt>
      <trkpt lat="43.08108" lon="0.38335">
        <ele>579.279128</ele>
        <time>2022-04-13T18:40:58.689Z</time>
      </trkpt>
      <trkpt lat="43.08112" lon="0.38347">
        <ele>579.214339</ele>
        <time>2022-04-13T18:41:00.593Z</time>
      </trkpt>
      <trkpt lat="43.08135" lon="0.38392">
        <ele>578.9592</ele>
        <time>2022-04-13T18:41:08.549Z</time>
      </trkpt>
      <trkpt lat="43.08132" lon="0.38405">
        <ele>578.896091</ele>
        <time>2022-04-13T18:41:10.483Z</time>
      </trkpt>
      <trkpt lat="43.08143" lon="0.38583">
        <ele>578.092735</ele>
        <time>2022-04-13T18:41:36.778Z</time>
      </trkpt>
      <trkpt lat="43.08148" lon="0.38691">
        <ele>577.857552</ele>
        <time>2022-04-13T18:41:53.658Z</time>
      </trkpt>
      <trkpt lat="43.08153" lon="0.38882">
        <ele>577.172287</ele>
        <time>2022-04-13T18:42:24.068Z</time>
      </trkpt>
      <trkpt lat="43.08149" lon="0.38911">
        <ele>576.911214</ele>
        <time>2022-04-13T18:42:28.239Z</time>
      </trkpt>
      <trkpt lat="43.08139" lon="0.38942">
        <ele>576.613028</ele>
        <time>2022-04-13T18:42:32.893Z</time>
      </trkpt>
      <trkpt lat="43.08129" lon="0.38958">
        <ele>576.427694</ele>
        <time>2022-04-13T18:42:35.821Z</time>
      </trkpt>
      <trkpt lat="43.08136" lon="0.38981">
        <ele>576.211898</ele>
        <time>2022-04-13T18:42:39.240Z</time>
      </trkpt>
      <trkpt lat="43.08139" lon="0.3906">
        <ele>575.510667</ele>
        <time>2022-04-13T18:42:50.374Z</time>
      </trkpt>
      <trkpt lat="43.08139" lon="0.39063">
        <ele>575.486899</ele>
        <time>2022-04-13T18:42:50.735Z</time>
      </trkpt>
      <trkpt lat="43.08136" lon="0.39116">
        <ele>574.830976</ele>
        <time>2022-04-13T18:42:57.917Z</time>
      </trkpt>
      <trkpt lat="43.08148" lon="0.39219">
        <ele>573.464992</ele>
        <time>2022-04-13T18:43:11.771Z</time>
      </trkpt>
      <trkpt lat="43.0817" lon="0.39331">
        <ele>572.052072</ele>
        <time>2022-04-13T18:43:27.942Z</time>
      </trkpt>
      <trkpt lat="43.08178" lon="0.39379">
        <ele>571.678551</ele>
        <time>2022-04-13T18:43:35.164Z</time>
      </trkpt>
      <trkpt lat="43.08198" lon="0.39665">
        <ele>569.74336</ele>
        <time>2022-04-13T18:44:18.024Z</time>
      </trkpt>
      <trkpt lat="43.08197" lon="0.39764">
        <ele>569.216945</ele>
        <time>2022-04-13T18:44:33.349Z</time>
      </trkpt>
      <trkpt lat="43.08187" lon="0.39915">
        <ele>568.481394</ele>
        <time>2022-04-13T18:44:56.815Z</time>
      </trkpt>
      <trkpt lat="43.08191" lon="0.39993">
        <ele>568.113945</ele>
        <time>2022-04-13T18:45:09.083Z</time>
      </trkpt>
      <trkpt lat="43.08213" lon="0.40142">
        <ele>566.831868</ele>
        <time>2022-04-13T18:45:31.658Z</time>
      </trkpt>
      <trkpt lat="43.08232" lon="0.40198">
        <ele>566.187946</ele>
        <time>2022-04-13T18:45:40.362Z</time>
      </trkpt>
      <trkpt lat="43.08242" lon="0.4028">
        <ele>565.317198</ele>
        <time>2022-04-13T18:45:51.669Z</time>
      </trkpt>
      <trkpt lat="43.08246" lon="0.40337">
        <ele>564.432719</ele>
        <time>2022-04-13T18:45:59.340Z</time>
      </trkpt>
      <trkpt lat="43.08239" lon="0.40376">
        <ele>563.794567</ele>
        <time>2022-04-13T18:46:04.619Z</time>
      </trkpt>
      <trkpt lat="43.08238" lon="0.40378">
        <ele>563.752545</ele>
        <time>2022-04-13T18:46:04.970Z</time>
      </trkpt>
      <trkpt lat="43.08208" lon="0.40391">
        <ele>563.076297</ele>
        <time>2022-04-13T18:46:10.283Z</time>
      </trkpt>
      <trkpt lat="43.08193" lon="0.40397">
        <ele>562.721133</ele>
        <time>2022-04-13T18:46:13.109Z</time>
      </trkpt>
      <trkpt lat="43.08217" lon="0.40527">
        <ele>560.725079</ele>
        <time>2022-04-13T18:46:30.034Z</time>
      </trkpt>
      <trkpt lat="43.08228" lon="0.40624">
        <ele>559.450795</ele>
        <time>2022-04-13T18:46:42.688Z</time>
      </trkpt>
      <trkpt lat="43.08228" lon="0.40627">
        <ele>559.416958</ele>
        <time>2022-04-13T18:46:43.025Z</time>
      </trkpt>
      <trkpt lat="43.08232" lon="0.40679">
        <ele>558.742598</ele>
        <time>2022-04-13T18:46:49.900Z</time>
      </trkpt>
      <trkpt lat="43.08241" lon="0.40863">
        <ele>557.948092</ele>
        <time>2022-04-13T18:47:15.850Z</time>
      </trkpt>
      <trkpt lat="43.08231" lon="0.41012">
        <ele>558.087628</ele>
        <time>2022-04-13T18:47:43.789Z</time>
      </trkpt>
      <trkpt lat="43.08236" lon="0.41102">
        <ele>558.722011</ele>
        <time>2022-04-13T18:48:01.593Z</time>
      </trkpt>
      <trkpt lat="43.08226" lon="0.41199">
        <ele>559.405895</ele>
        <time>2022-04-13T18:48:20.476Z</time>
      </trkpt>
      <trkpt lat="43.08214" lon="0.41289">
        <ele>559.535815</ele>
        <time>2022-04-13T18:48:37.455Z</time>
      </trkpt>
      <trkpt lat="43.08197" lon="0.41405">
        <ele>559.565586</ele>
        <time>2022-04-13T18:48:56.222Z</time>
      </trkpt>
      <trkpt lat="43.08183" lon="0.41498">
        <ele>559.31925</ele>
        <time>2022-04-13T18:49:10.161Z</time>
      </trkpt>
      <trkpt lat="43.08178" lon="0.41533">
        <ele>559.111239</ele>
        <time>2022-04-13T18:49:15.248Z</time>
      </trkpt>
      <trkpt lat="43.08168" lon="0.4159">
        <ele>558.760323</ele>
        <time>2022-04-13T18:49:23.749Z</time>
      </trkpt>
      <trkpt lat="43.08163" lon="0.4162">
        <ele>558.579784</ele>
        <time>2022-04-13T18:49:28.038Z</time>
      </trkpt>
      <trkpt lat="43.08162" lon="0.41628">
        <ele>558.529179</ele>
        <time>2022-04-13T18:49:29.240Z</time>
      </trkpt>
      <trkpt lat="43.08142" lon="0.41746">
        <ele>557.564466</ele>
        <time>2022-04-13T18:49:46.349Z</time>
      </trkpt>
      <trkpt lat="43.0814" lon="0.41756">
        <ele>557.453181</ele>
        <time>2022-04-13T18:49:47.795Z</time>
      </trkpt>
      <trkpt lat="43.08119" lon="0.41884">
        <ele>556.050019</ele>
        <time>2022-04-13T18:50:05.650Z</time>
      </trkpt>
      <trkpt lat="43.08102" lon="0.41984">
        <ele>554.815195</ele>
        <time>2022-04-13T18:50:18.603Z</time>
      </trkpt>
      <trkpt lat="43.08069" lon="0.42186">
        <ele>552.096911</ele>
        <time>2022-04-13T18:50:45.394Z</time>
      </trkpt>
      <trkpt lat="43.08038" lon="0.42364">
        <ele>550.922797</ele>
        <time>2022-04-13T18:51:11.813Z</time>
      </trkpt>
      <trkpt lat="43.08022" lon="0.42426">
        <ele>550.456987</ele>
        <time>2022-04-13T18:51:22.252Z</time>
      </trkpt>
      <trkpt lat="43.08023" lon="0.4244">
        <ele>550.324738</ele>
        <time>2022-04-13T18:51:24.462Z</time>
      </trkpt>
      <trkpt lat="43.07889" lon="0.42943">
        <ele>544.586203</ele>
        <time>2022-04-13T18:52:35.769Z</time>
      </trkpt>
      <trkpt lat="43.07842" lon="0.43124">
        <ele>542.251593</ele>
        <time>2022-04-13T18:53:01.402Z</time>
      </trkpt>
      <trkpt lat="43.07829" lon="0.43191">
        <ele>540.93295</ele>
        <time>2022-04-13T18:53:10.584Z</time>
      </trkpt>
      <trkpt lat="43.07782" lon="0.43566">
        <ele>531.132588</ele>
        <time>2022-04-13T18:53:55.999Z</time>
      </trkpt>
      <trkpt lat="43.07782" lon="0.43568">
        <ele>531.058247</ele>
        <time>2022-04-13T18:53:56.242Z</time>
      </trkpt>
      <trkpt lat="43.07777" lon="0.43624">
        <ele>528.272538</ele>
        <time>2022-04-13T18:54:01.999Z</time>
      </trkpt>
      <trkpt lat="43.07764" lon="0.43706">
        <ele>522.884462</ele>
        <time>2022-04-13T18:54:10.423Z</time>
      </trkpt>
      <trkpt lat="43.07724" lon="0.43741">
        <ele>518.727585</ele>
        <time>2022-04-13T18:54:16.850Z</time>
      </trkpt>
      <trkpt lat="43.07707" lon="0.43775">
        <ele>516.084307</ele>
        <time>2022-04-13T18:54:20.936Z</time>
      </trkpt>
      <trkpt lat="43.07705" lon="0.43789">
        <ele>515.134096</ele>
        <time>2022-04-13T18:54:22.403Z</time>
      </trkpt>
      <trkpt lat="43.07695" lon="0.43868">
        <ele>511.427992</ele>
        <time>2022-04-13T18:54:30.535Z</time>
      </trkpt>
      <trkpt lat="43.07691" lon="0.43894">
        <ele>510.322038</ele>
        <time>2022-04-13T18:54:33.185Z</time>
      </trkpt>
      <trkpt lat="43.07676" lon="0.44021">
        <ele>504.776975</ele>
        <time>2022-04-13T18:54:47.654Z</time>
      </trkpt>
      <trkpt lat="43.07681" lon="0.44068">
        <ele>503.402394</ele>
        <time>2022-04-13T18:54:53.664Z</time>
      </trkpt>
      <trkpt lat="43.07681" lon="0.44094">
        <ele>502.959608</ele>
        <time>2022-04-13T18:54:57.053Z</time>
      </trkpt>
      <trkpt lat="43.07681" lon="0.44216">
        <ele>500.878449</ele>
        <time>2022-04-13T18:55:12.622Z</time>
      </trkpt>
      <trkpt lat="43.07672" lon="0.44313">
        <ele>499.163346</ele>
        <time>2022-04-13T18:55:25.002Z</time>
      </trkpt>
      <trkpt lat="43.07644" lon="0.44325">
        <ele>498.422588</ele>
        <time>2022-04-13T18:55:30.120Z</time>
      </trkpt>
      <trkpt lat="43.07616" lon="0.44335">
        <ele>497.683106</ele>
        <time>2022-04-13T18:55:35.224Z</time>
      </trkpt>
      <trkpt lat="43.07601" lon="0.44359">
        <ele>497.083721</ele>
        <time>2022-04-13T18:55:39.330Z</time>
      </trkpt>
      <trkpt lat="43.07597" lon="0.444">
        <ele>496.307126</ele>
        <time>2022-04-13T18:55:44.438Z</time>
      </trkpt>
      <trkpt lat="43.0759" lon="0.44434">
        <ele>495.653515</ele>
        <time>2022-04-13T18:55:48.709Z</time>
      </trkpt>
      <trkpt lat="43.07579" lon="0.44474">
        <ele>494.937914</ele>
        <time>2022-04-13T18:55:53.890Z</time>
      </trkpt>
      <trkpt lat="43.07539" lon="0.44583">
        <ele>493.646456</ele>
        <time>2022-04-13T18:56:09.998Z</time>
      </trkpt>
      <trkpt lat="43.07487" lon="0.44676">
        <ele>492.425479</ele>
        <time>2022-04-13T18:56:26.693Z</time>
      </trkpt>
      <trkpt lat="43.07463" lon="0.44784">
        <ele>491.932617</ele>
        <time>2022-04-13T18:56:43.364Z</time>
      </trkpt>
      <trkpt lat="43.07321" lon="0.45222">
        <ele>490.454174</ele>
        <time>2022-04-13T18:57:55.416Z</time>
      </trkpt>
      <trkpt lat="43.073" lon="0.45319">
        <ele>490.364585</ele>
        <time>2022-04-13T18:58:11.904Z</time>
      </trkpt>
      <trkpt lat="43.07231" lon="0.45565">
        <ele>490.679783</ele>
        <time>2022-04-13T18:58:57.288Z</time>
      </trkpt>
      <trkpt lat="43.07221" lon="0.45634">
        <ele>490.586401</ele>
        <time>2022-04-13T18:59:08.537Z</time>
      </trkpt>
      <trkpt lat="43.07217" lon="0.45703">
        <ele>490.38292</ele>
        <time>2022-04-13T18:59:19.074Z</time>
      </trkpt>
      <trkpt lat="43.0724" lon="0.4583">
        <ele>489.995061</ele>
        <time>2022-04-13T18:59:38.442Z</time>
      </trkpt>
      <trkpt lat="43.07245" lon="0.45936">
        <ele>489.687213</ele>
        <time>2022-04-13T18:59:54.097Z</time>
      </trkpt>
      <trkpt lat="43.07252" lon="0.4601">
        <ele>489.468602</ele>
        <time>2022-04-13T19:00:05.534Z</time>
      </trkpt>
      <trkpt lat="43.07281" lon="0.46184">
        <ele>489.058974</ele>
        <time>2022-04-13T19:00:34.240Z</time>
      </trkpt>
      <trkpt lat="43.07272" lon="0.46347">
        <ele>488.584795</ele>
        <time>2022-04-13T19:00:59.347Z</time>
      </trkpt>
      <trkpt lat="43.0726" lon="0.46454">
        <ele>487.784552</ele>
        <time>2022-04-13T19:01:14.928Z</time>
      </trkpt>
      <trkpt lat="43.07251" lon="0.46568">
        <ele>486.904966</ele>
        <time>2022-04-13T19:01:30.581Z</time>
      </trkpt>
      <trkpt lat="43.07252" lon="0.46683">
        <ele>485.471296</ele>
        <time>2022-04-13T19:01:45.597Z</time>
      </trkpt>
      <trkpt lat="43.07242" lon="0.46984">
        <ele>481.410661</ele>
        <time>2022-04-13T19:02:24.711Z</time>
      </trkpt>
      <trkpt lat="43.07226" lon="0.4718">
        <ele>478.212218</ele>
        <time>2022-04-13T19:02:49.948Z</time>
      </trkpt>
      <trkpt lat="43.07228" lon="0.47211">
        <ele>477.669692</ele>
        <time>2022-04-13T19:02:53.821Z</time>
      </trkpt>
      <trkpt lat="43.0724" lon="0.47251">
        <ele>476.909354</ele>
        <time>2022-04-13T19:02:59.189Z</time>
      </trkpt>
      <trkpt lat="43.07254" lon="0.47348">
        <ele>474.857011</ele>
        <time>2022-04-13T19:03:11.091Z</time>
      </trkpt>
      <trkpt lat="43.07273" lon="0.47378">
        <ele>473.907312</ele>
        <time>2022-04-13T19:03:15.902Z</time>
      </trkpt>
      <trkpt lat="43.07292" lon="0.47421">
        <ele>472.748109</ele>
        <time>2022-04-13T19:03:21.760Z</time>
      </trkpt>
      <trkpt lat="43.073" lon="0.4754">
        <ele>470.03447</ele>
        <time>2022-04-13T19:03:35.843Z</time>
      </trkpt>
      <trkpt lat="43.07299" lon="0.47681">
        <ele>467.455801</ele>
        <time>2022-04-13T19:03:53.044Z</time>
      </trkpt>
      <trkpt lat="43.07305" lon="0.47742">
        <ele>466.324358</ele>
        <time>2022-04-13T19:04:00.919Z</time>
      </trkpt>
      <trkpt lat="43.07317" lon="0.47805">
        <ele>465.455027</ele>
        <time>2022-04-13T19:04:09.498Z</time>
      </trkpt>
      <trkpt lat="43.07334" lon="0.47913">
        <ele>464.342371</ele>
        <time>2022-04-13T19:04:24.287Z</time>
      </trkpt>
      <trkpt lat="43.07322" lon="0.48028">
        <ele>463.309827</ele>
        <time>2022-04-13T19:04:40.643Z</time>
      </trkpt>
      <trkpt lat="43.07318" lon="0.48122">
        <ele>462.984999</ele>
        <time>2022-04-13T19:04:54.420Z</time>
      </trkpt>
      <trkpt lat="43.07322" lon="0.48213">
        <ele>462.672956</ele>
        <time>2022-04-13T19:05:08.408Z</time>
      </trkpt>
      <trkpt lat="43.07343" lon="0.48323">
        <ele>462.487001</ele>
        <time>2022-04-13T19:05:26.991Z</time>
      </trkpt>
      <trkpt lat="43.07366" lon="0.48423">
        <ele>462.425627</ele>
        <time>2022-04-13T19:05:44.025Z</time>
      </trkpt>
      <trkpt lat="43.07385" lon="0.48484">
        <ele>462.386397</ele>
        <time>2022-04-13T19:05:54.659Z</time>
      </trkpt>
      <trkpt lat="43.07237" lon="0.48576">
        <ele>461.796055</ele>
        <time>2022-04-13T19:06:28.209Z</time>
      </trkpt>
      <trkpt lat="43.07178" lon="0.48605">
        <ele>461.768901</ele>
        <time>2022-04-13T19:06:41.740Z</time>
      </trkpt>
      <trkpt lat="43.07153" lon="0.4861">
        <ele>461.792451</ele>
        <time>2022-04-13T19:06:47.206Z</time>
      </trkpt>
      <trkpt lat="43.07067" lon="0.48614">
        <ele>461.874319</ele>
        <time>2022-04-13T19:07:06.881Z</time>
      </trkpt>
      <trkpt lat="43.06979" lon="0.48598">
        <ele>462.571798</ele>
        <time>2022-04-13T19:07:28.705Z</time>
      </trkpt>
      <trkpt lat="43.06932" lon="0.48593">
        <ele>463.073026</ele>
        <time>2022-04-13T19:07:40.902Z</time>
      </trkpt>
      <trkpt lat="43.06753" lon="0.48609">
        <ele>465.651242</ele>
        <time>2022-04-13T19:08:32.961Z</time>
      </trkpt>
      <trkpt lat="43.06704" lon="0.48609">
        <ele>466.477244</ele>
        <time>2022-04-13T19:08:48.043Z</time>
      </trkpt>
      <trkpt lat="43.06682" lon="0.48603">
        <ele>466.818711</ele>
        <time>2022-04-13T19:08:53.651Z</time>
      </trkpt>
      <trkpt lat="43.06663" lon="0.48589">
        <ele>466.909508</ele>
        <time>2022-04-13T19:09:00.427Z</time>
      </trkpt>
      <trkpt lat="43.06657" lon="0.48604">
        <ele>466.961731</ele>
        <time>2022-04-13T19:09:03.134Z</time>
      </trkpt>
      <trkpt lat="43.06658" lon="0.48621">
        <ele>467.013993</ele>
        <time>2022-04-13T19:09:06.872Z</time>
      </trkpt>
      <trkpt lat="43.06683" lon="0.48749">
        <ele>467.413514</ele>
        <time>2022-04-13T19:09:29.829Z</time>
      </trkpt>
      <trkpt lat="43.06684" lon="0.48755">
        <ele>467.431429</ele>
        <time>2022-04-13T19:09:30.912Z</time>
      </trkpt>
      <trkpt lat="43.06745" lon="0.49086">
        <ele>465.966196</ele>
        <time>2022-04-13T19:10:19.973Z</time>
      </trkpt>
      <trkpt lat="43.06753" lon="0.4919">
        <ele>465.460756</ele>
        <time>2022-04-13T19:10:35.436Z</time>
      </trkpt>
      <trkpt lat="43.06753" lon="0.49265">
        <ele>465.096337</ele>
        <time>2022-04-13T19:10:46.672Z</time>
      </trkpt>
      <trkpt lat="43.06743" lon="0.49401">
        <ele>464.468702</ele>
        <time>2022-04-13T19:11:06.935Z</time>
      </trkpt>
      <trkpt lat="43.06746" lon="0.49505">
        <ele>463.993147</ele>
        <time>2022-04-13T19:11:22.005Z</time>
      </trkpt>
      <trkpt lat="43.06782" lon="0.49745">
        <ele>462.865234</ele>
        <time>2022-04-13T19:11:58.079Z</time>
      </trkpt>
      <trkpt lat="43.06779" lon="0.49787">
        <ele>462.768963</ele>
        <time>2022-04-13T19:12:04.391Z</time>
      </trkpt>
      <trkpt lat="43.06767" lon="0.49844">
        <ele>462.741348</ele>
        <time>2022-04-13T19:12:13.542Z</time>
      </trkpt>
      <trkpt lat="43.06707" lon="0.49971">
        <ele>462.671722</ele>
        <time>2022-04-13T19:12:37.827Z</time>
      </trkpt>
      <trkpt lat="43.06664" lon="0.50107">
        <ele>463.374952</ele>
        <time>2022-04-13T19:13:06.016Z</time>
      </trkpt>
      <trkpt lat="43.06623" lon="0.50239">
        <ele>463.879915</ele>
        <time>2022-04-13T19:13:32.284Z</time>
      </trkpt>
      <trkpt lat="43.06618" lon="0.50305">
        <ele>463.756587</ele>
        <time>2022-04-13T19:13:43.739Z</time>
      </trkpt>
      <trkpt lat="43.06639" lon="0.50388">
        <ele>463.594552</ele>
        <time>2022-04-13T19:13:57.534Z</time>
      </trkpt>
      <trkpt lat="43.06643" lon="0.50564">
        <ele>462.300454</ele>
        <time>2022-04-13T19:14:21.084Z</time>
      </trkpt>
      <trkpt lat="43.0667" lon="0.50714">
        <ele>460.791368</ele>
        <time>2022-04-13T19:14:41.880Z</time>
      </trkpt>
      <trkpt lat="43.06701" lon="0.50782">
        <ele>460.13294</ele>
        <time>2022-04-13T19:14:53.066Z</time>
      </trkpt>
      <trkpt lat="43.06708" lon="0.50817">
        <ele>459.84328</ele>
        <time>2022-04-13T19:14:58.057Z</time>
      </trkpt>
      <trkpt lat="43.06716" lon="0.50911">
        <ele>459.072542</ele>
        <time>2022-04-13T19:15:11.506Z</time>
      </trkpt>
      <trkpt lat="43.06719" lon="0.51056">
        <ele>458.285723</ele>
        <time>2022-04-13T19:15:32.410Z</time>
      </trkpt>
      <trkpt lat="43.06727" lon="0.51101">
        <ele>458.044083</ele>
        <time>2022-04-13T19:15:39.078Z</time>
      </trkpt>
      <trkpt lat="43.06754" lon="0.51193">
        <ele>457.708974</ele>
        <time>2022-04-13T19:15:53.805Z</time>
      </trkpt>
      <trkpt lat="43.0676" lon="0.5123">
        <ele>457.712802</ele>
        <time>2022-04-13T19:15:59.549Z</time>
      </trkpt>
      <trkpt lat="43.06759" lon="0.51448">
        <ele>457.592912</ele>
        <time>2022-04-13T19:16:37.161Z</time>
      </trkpt>
      <trkpt lat="43.06738" lon="0.51673">
        <ele>456.525699</ele>
        <time>2022-04-13T19:17:11.598Z</time>
      </trkpt>
      <trkpt lat="43.06724" lon="0.51788">
        <ele>454.517215</ele>
        <time>2022-04-13T19:17:25.993Z</time>
      </trkpt>
      <trkpt lat="43.0672" lon="0.51894">
        <ele>452.67687</ele>
        <time>2022-04-13T19:17:38.772Z</time>
      </trkpt>
      <trkpt lat="43.06732" lon="0.51915">
        <ele>452.093169</ele>
        <time>2022-04-13T19:17:41.924Z</time>
      </trkpt>
      <trkpt lat="43.06754" lon="0.51936">
        <ele>451.291471</ele>
        <time>2022-04-13T19:17:46.309Z</time>
      </trkpt>
      <trkpt lat="43.06832" lon="0.51973">
        <ele>448.791736</ele>
        <time>2022-04-13T19:17:59.934Z</time>
      </trkpt>
      <trkpt lat="43.06864" lon="0.51993">
        <ele>447.746561</ele>
        <time>2022-04-13T19:18:05.679Z</time>
      </trkpt>
      <trkpt lat="43.06873" lon="0.52003">
        <ele>447.377966</ele>
        <time>2022-04-13T19:18:07.741Z</time>
      </trkpt>
      <trkpt lat="43.06978" lon="0.52021">
        <ele>444.315437</ele>
        <time>2022-04-13T19:18:25.284Z</time>
      </trkpt>
      <trkpt lat="43.07024" lon="0.52061">
        <ele>442.75129</ele>
        <time>2022-04-13T19:18:34.097Z</time>
      </trkpt>
      <trkpt lat="43.07045" lon="0.52088">
        <ele>442.01384</ele>
        <time>2022-04-13T19:18:38.900Z</time>
      </trkpt>
      <trkpt lat="43.0708" lon="0.52164">
        <ele>441.069503</ele>
        <time>2022-04-13T19:18:50.324Z</time>
      </trkpt>
      <trkpt lat="43.07118" lon="0.5223">
        <ele>440.19838</ele>
        <time>2022-04-13T19:19:01.697Z</time>
      </trkpt>
      <trkpt lat="43.07163" lon="0.52287">
        <ele>439.538437</ele>
        <time>2022-04-13T19:19:14.786Z</time>
      </trkpt>
      <trkpt lat="43.07232" lon="0.52333">
        <ele>439.575611</ele>
        <time>2022-04-13T19:19:32.247Z</time>
      </trkpt>
      <trkpt lat="43.07273" lon="0.52355">
        <ele>439.597009</ele>
        <time>2022-04-13T19:19:42.486Z</time>
      </trkpt>
      <trkpt lat="43.07297" lon="0.52373">
        <ele>439.610075</ele>
        <time>2022-04-13T19:19:48.621Z</time>
      </trkpt>
      <trkpt lat="43.07329" lon="0.52405">
        <ele>439.565385</ele>
        <time>2022-04-13T19:19:57.446Z</time>
      </trkpt>
      <trkpt lat="43.07339" lon="0.52429">
        <ele>439.518888</ele>
        <time>2022-04-13T19:20:02.318Z</time>
      </trkpt>
      <trkpt lat="43.07318" lon="0.52486">
        <ele>439.413428</ele>
        <time>2022-04-13T19:20:12.675Z</time>
      </trkpt>
      <trkpt lat="43.07295" lon="0.52577">
        <ele>439.253522</ele>
        <time>2022-04-13T19:20:27.585Z</time>
      </trkpt>
      <trkpt lat="43.07292" lon="0.52687">
        <ele>438.62935</ele>
        <time>2022-04-13T19:20:43.197Z</time>
      </trkpt>
      <trkpt lat="43.07271" lon="0.52805">
        <ele>437.782547</ele>
        <time>2022-04-13T19:21:00.335Z</time>
      </trkpt>
      <trkpt lat="43.07257" lon="0.52937">
        <ele>436.703858</ele>
        <time>2022-04-13T19:21:18.673Z</time>
      </trkpt>
      <trkpt lat="43.07219" lon="0.53084">
        <ele>435.361675</ele>
        <time>2022-04-13T19:21:40.209Z</time>
      </trkpt>
      <trkpt lat="43.07209" lon="0.53138">
        <ele>435.010354</ele>
        <time>2022-04-13T19:21:48.171Z</time>
      </trkpt>
      <trkpt lat="43.0721" lon="0.53197">
        <ele>434.646872</ele>
        <time>2022-04-13T19:21:56.489Z</time>
      </trkpt>
      <trkpt lat="43.07201" lon="0.53316">
        <ele>433.899717</ele>
        <time>2022-04-13T19:22:13.786Z</time>
      </trkpt>
      <trkpt lat="43.07207" lon="0.53445">
        <ele>433.211407</ele>
        <time>2022-04-13T19:22:32.729Z</time>
      </trkpt>
      <trkpt lat="43.07207" lon="0.53592">
        <ele>432.477455</ele>
        <time>2022-04-13T19:22:54.102Z</time>
      </trkpt>
      <trkpt lat="43.07199" lon="0.53678">
        <ele>432.157618</ele>
        <time>2022-04-13T19:23:07.021Z</time>
      </trkpt>
      <trkpt lat="43.0719" lon="0.53716">
        <ele>432.009511</ele>
        <time>2022-04-13T19:23:12.987Z</time>
      </trkpt>
      <trkpt lat="43.0714" lon="0.53847">
        <ele>431.573204</ele>
        <time>2022-04-13T19:23:35.580Z</time>
      </trkpt>
      <trkpt lat="43.0713" lon="0.53894">
        <ele>431.504029</ele>
        <time>2022-04-13T19:23:43.117Z</time>
      </trkpt>
      <trkpt lat="43.07113" lon="0.54168">
        <ele>431.291143</ele>
        <time>2022-04-13T19:24:27.235Z</time>
      </trkpt>
    </trkseg>
  </trk>
</gpx>